Observation data for Endee on 07/20/2019      Previous  Date  Next       Current Mesonet Observations  Soil Data  Daily Summary Page  Observations in Plain Language
KEN1 200500Z 15010KT 29/12 A2993 RMK A01 T02850115  RH  035%=      5-min Rain = 0
KEN1 200501Z 15009KT 28/11 A2993 RMK A01 T02840114  RH  035%=      5-min Rain = 0
KEN1 200502Z 15009KT 28/12 A2993 RMK A01 T02820115  RH  035%=      5-min Rain = 0
KEN1 200503Z 15009KT 28/11 A2993 RMK A01 T02800114  RH  036%=      5-min Rain = 0
KEN1 200504Z 15010KT 28/12 A2993 RMK A01 T02790115  RH  036%=      5-min Rain = 0
KEN1 200505Z 15010KT 28/12 A2993 RMK A01 T02790115  RH  036%=      5-min Rain = 0
KEN1 200506Z 15011KT 28/12 A2993 RMK A01 T02780115  RH  036%=      5-min Rain = 0
KEN1 200507Z 15010KT 28/12 A2993 RMK A01 T02800116  RH  036%=      5-min Rain = 0
KEN1 200508Z 15009KT 28/12 A2993 RMK A01 T02800116  RH  036%=      5-min Rain = 0
KEN1 200509Z 14008KT 28/12 A2993 RMK A01 T02800116  RH  036%=      5-min Rain = 0
KEN1 200510Z 15008KT 28/12 A2993 RMK A01 T02790116  RH  036%=      5-min Rain = 0
KEN1 200511Z 15008KT 28/12 A2993 RMK A01 T02770116  RH  037%=      5-min Rain = 0
KEN1 200512Z 15008KT 28/12 A2993 RMK A01 T02760116  RH  037%=      5-min Rain = 0
KEN1 200513Z 15007KT 28/12 A2993 RMK A01 T02750117  RH  037%=      5-min Rain = 0
KEN1 200514Z 16008KT 27/12 A2993 RMK A01 T02730116  RH  038%=      5-min Rain = 0
KEN1 200515Z 16009KT 27/12 A2993 RMK A01 T02730117  RH  038%=      5-min Rain = 0
KEN1 200516Z 16010KT 27/12 A2993 RMK A01 T02740117  RH  038%=      5-min Rain = 0
KEN1 200517Z 16009KT 28/12 A2993 RMK A01 T02760118  RH  037%=      5-min Rain = 0
KEN1 200518Z 16009KT 28/12 A2993 RMK A01 T02770118  RH  037%=      5-min Rain = 0
KEN1 200519Z 15009KT 28/12 A2993 RMK A01 T02780118  RH  037%=      5-min Rain = 0
KEN1 200520Z 14008KT 28/12 A2993 RMK A01 T02780118  RH  037%=      5-min Rain = 0
KEN1 200521Z 14009KT 28/12 A2993 RMK A01 T02770118  RH  037%=      5-min Rain = 0
KEN1 200522Z 14010KT 28/12 A2993 RMK A01 T02750118  RH  038%=      5-min Rain = 0
KEN1 200523Z 14010KT 27/12 A2993 RMK A01 T02740118  RH  038%=      5-min Rain = 0
KEN1 200524Z 14009KT 27/12 A2993 RMK A01 T02730118  RH  038%=      5-min Rain = 0
KEN1 200525Z 15009KT 27/12 A2993 RMK A01 T02730119  RH  038%=      5-min Rain = 0
KEN1 200526Z 15009KT 27/12 A2993 RMK A01 T02720119  RH  039%=      5-min Rain = 0
KEN1 200527Z 16009KT 27/12 A2993 RMK A01 T02710119  RH  039%=      5-min Rain = 0
KEN1 200528Z 16011KT 27/12 A2993 RMK A01 T02720119  RH  039%=      5-min Rain = 0
KEN1 200529Z 16012KT 27/12 A2993 RMK A01 T02740119  RH  038%=      5-min Rain = 0
KEN1 200530Z 16012KT 28/12 A2993 RMK A01 T02770119  RH  037%=      5-min Rain = 0
KEN1 200531Z 16013G18KT 28/12 A2993 RMK A01 T02790119  RH  037%=      5-min Rain = 0
KEN1 200532Z 15013KT 28/12 A2993 RMK A01 T02820120  RH  037%=      5-min Rain = 0
KEN1 200533Z 16013KT 28/12 A2993 RMK A01 T02840120  RH  036%=      5-min Rain = 0
KEN1 200534Z 15013KT 29/12 A2993 RMK A01 T02850120  RH  036%=      5-min Rain = 0
KEN1 200535Z 15012KT 29/12 A2993 RMK A01 T02860120  RH  036%=      5-min Rain = 0
KEN1 200536Z 15012KT 29/12 A2993 RMK A01 T02860121  RH  036%=      5-min Rain = 0
KEN1 200537Z 15012KT 29/12 A2993 RMK A01 T02860121  RH  036%=      5-min Rain = 0
KEN1 200538Z 15012KT 29/12 A2993 RMK A01 T02850121  RH  036%=      5-min Rain = 0
KEN1 200539Z 15012KT 29/12 A2993 RMK A01 T02850121  RH  036%=      5-min Rain = 0
KEN1 200540Z 15013KT 29/12 A2993 RMK A01 T02850120  RH  036%=      5-min Rain = 0
KEN1 200541Z 16013KT 29/12 A2993 RMK A01 T02860121  RH  036%=      5-min Rain = 0
KEN1 200542Z 16013KT 29/12 A2993 RMK A01 T02870121  RH  036%=      5-min Rain = 0
KEN1 200543Z 16011KT 29/12 A2993 RMK A01 T02880121  RH  036%=      5-min Rain = 0
KEN1 200544Z 16012KT 29/12 A2993 RMK A01 T02880121  RH  036%=      5-min Rain = 0
KEN1 200545Z 16013KT 29/12 A2993 RMK A01 T02880121  RH  036%=      5-min Rain = 0
KEN1 200546Z 17013KT 29/12 A2993 RMK A01 T02890121  RH  035%=      5-min Rain = 0
KEN1 200547Z 17015KT 29/12 A2993 RMK A01 T02890121  RH  035%=      5-min Rain = 0
KEN1 200548Z 17017KT 29/12 A2993 RMK A01 T02890122  RH  036%=      5-min Rain = 0
KEN1 200549Z 17017KT 29/12 A2993 RMK A01 T02900122  RH  036%=      5-min Rain = 0
KEN1 200550Z 17015KT 29/12 A2993 RMK A01 T02910123  RH  035%=      5-min Rain = 0
KEN1 200551Z 17016KT 29/12 A2993 RMK A01 T02920123  RH  035%=      5-min Rain = 0
KEN1 200552Z 18016KT 29/12 A2993 RMK A01 T02920123  RH  035%=      5-min Rain = 0
KEN1 200553Z 17015KT 29/12 A2993 RMK A01 T02920123  RH  035%=      5-min Rain = 0
KEN1 200554Z 18015G21KT 29/12 A2993 RMK A01 T02930124  RH  035%=      5-min Rain = 0
KEN1 200555Z 17017KT 29/12 A2993 RMK A01 T02920124  RH  035%=      5-min Rain = 0
KEN1 200556Z 18016KT 29/12 A2993 RMK A01 T02930124  RH  035%=      5-min Rain = 0
KEN1 200557Z 18018KT 29/12 A2993 RMK A01 T02930124  RH  035%=      5-min Rain = 0
KEN1 200558Z 17018KT 29/13 A2993 RMK A01 T02930125  RH  035%=      5-min Rain = 0
KEN1 200559Z 18017KT 29/13 A2993 RMK A01 T02930125  RH  035%=      5-min Rain = 0
KEN1 200600Z 18017KT 29/13 A2993 RMK A01 T02930125  RH  035%=      5-min Rain = 0
KEN1 200601Z 18019KT 29/13 A2993 RMK A01 T02940125  RH  035%=      5-min Rain = 0
KEN1 200602Z 18018G23KT 29/13 A2993 RMK A01 T02940126  RH  035%=      5-min Rain = 0
KEN1 200603Z 18017KT 29/13 A2993 RMK A01 T02940125  RH  035%=      5-min Rain = 0
KEN1 200604Z 18018KT 29/13 A2993 RMK A01 T02940126  RH  036%=      5-min Rain = 0
KEN1 200605Z 18018KT 29/13 A2993 RMK A01 T02940126  RH  036%=      5-min Rain = 0
KEN1 200606Z 18016KT 29/13 A2993 RMK A01 T02940126  RH  036%=      5-min Rain = 0
KEN1 200607Z 18017KT 29/13 A2993 RMK A01 T02940126  RH  036%=      5-min Rain = 0
KEN1 200608Z 18018KT 29/13 A2993 RMK A01 T02930127  RH  036%=      5-min Rain = 0
KEN1 200609Z 18016KT 29/13 A2993 RMK A01 T02930126  RH  036%=      5-min Rain = 0
KEN1 200610Z 18015G20KT 29/13 A2993 RMK A01 T02920127  RH  036%=      5-min Rain = 0
KEN1 200611Z 18017KT 29/13 A2993 RMK A01 T02910127  RH  036%=      5-min Rain = 0
KEN1 200612Z 18018G23KT 29/13 A2993 RMK A01 T02910127  RH  037%=      5-min Rain = 0
KEN1 200613Z 18019KT 29/13 A2993 RMK A01 T02910127  RH  036%=      5-min Rain = 0
KEN1 200614Z 18017KT 29/13 A2993 RMK A01 T02910127  RH  036%=      5-min Rain = 0
KEN1 200615Z 18016KT 29/13 A2993 RMK A01 T02910127  RH  036%=      5-min Rain = 0
KEN1 200616Z 18017KT 29/13 A2993 RMK A01 T02910128  RH  037%=      5-min Rain = 0
KEN1 200617Z 18016KT 29/13 A2993 RMK A01 T02900128  RH  037%=      5-min Rain = 0
KEN1 200618Z 18018KT 29/13 A2993 RMK A01 T02900128  RH  037%=      5-min Rain = 0
KEN1 200619Z 18015KT 29/13 A2994 RMK A01 T02900128  RH  037%=      5-min Rain = 0
KEN1 200620Z 18013KT 29/13 A2994 RMK A01 T02900128  RH  037%=      5-min Rain = 0
KEN1 200621Z 18014KT 29/13 A2994 RMK A01 T02880128  RH  037%=      5-min Rain = 0
KEN1 200622Z 18015KT 29/13 A2994 RMK A01 T02870128  RH  037%=      5-min Rain = 0
KEN1 200623Z 18016KT 29/13 A2993 RMK A01 T02870128  RH  038%=      5-min Rain = 0
KEN1 200624Z 19016KT 29/13 A2994 RMK A01 T02880129  RH  038%=      5-min Rain = 0
KEN1 200625Z 18014KT 29/13 A2994 RMK A01 T02880129  RH  038%=      5-min Rain = 0
KEN1 200626Z 18016KT 29/13 A2994 RMK A01 T02880129  RH  038%=      5-min Rain = 0
KEN1 200627Z 18017KT 29/13 A2994 RMK A01 T02880129  RH  038%=      5-min Rain = 0
KEN1 200628Z 19016KT 29/13 A2994 RMK A01 T02880130  RH  038%=      5-min Rain = 0
KEN1 200629Z 19017KT 29/13 A2994 RMK A01 T02880130  RH  038%=      5-min Rain = 0
KEN1 200630Z 19019KT 29/13 A2994 RMK A01 T02880130  RH  038%=      5-min Rain = 0
KEN1 200631Z 19017KT 29/13 A2994 RMK A01 T02890130  RH  038%=      5-min Rain = 0
KEN1 200632Z 18017KT 29/13 A2994 RMK A01 T02890131  RH  038%=      5-min Rain = 0
KEN1 200633Z 18016KT 29/13 A2994 RMK A01 T02890131  RH  038%=      5-min Rain = 0
KEN1 200634Z 19017G23KT 29/13 A2994 RMK A01 T02880131  RH  038%=      5-min Rain = 0
KEN1 200635Z 19018KT 29/13 A2994 RMK A01 T02880131  RH  038%=      5-min Rain = 0
KEN1 200636Z 19019KT 29/13 A2994 RMK A01 T02880131  RH  038%=      5-min Rain = 0
KEN1 200637Z 19016KT 29/13 A2994 RMK A01 T02880131  RH  038%=      5-min Rain = 0
KEN1 200638Z 19018KT 29/13 A2994 RMK A01 T02870131  RH  038%=      5-min Rain = 0
KEN1 200639Z 19016KT 29/13 A2994 RMK A01 T02870131  RH  038%=      5-min Rain = 0
KEN1 200640Z 19016G21KT 29/13 A2994 RMK A01 T02870131  RH  038%=      5-min Rain = 0
KEN1 200641Z 18018KT 29/13 A2994 RMK A01 T02870131  RH  038%=      5-min Rain = 0
KEN1 200642Z 18017KT 29/13 A2994 RMK A01 T02870131  RH  038%=      5-min Rain = 0
KEN1 200643Z 19018KT 29/13 A2994 RMK A01 T02870131  RH  038%=      5-min Rain = 0
KEN1 200644Z 18015KT 29/13 A2994 RMK A01 T02870131  RH  038%=      5-min Rain = 0
KEN1 200645Z 18016G21KT 29/13 A2994 RMK A01 T02870132  RH  038%=      5-min Rain = 0
KEN1 200646Z 18016G22KT 29/13 A2994 RMK A01 T02860131  RH  039%=      5-min Rain = 0
KEN1 200647Z 18014KT 29/13 A2994 RMK A01 T02860132  RH  039%=      5-min Rain = 0
KEN1 200648Z 18014KT 29/13 A2994 RMK A01 T02850132  RH  039%=      5-min Rain = 0
KEN1 200649Z 18016KT 29/13 A2994 RMK A01 T02850132  RH  039%=      5-min Rain = 0
KEN1 200650Z 18018KT 29/13 A2994 RMK A01 T02850132  RH  039%=      5-min Rain = 0
KEN1 200651Z 18015KT 29/13 A2994 RMK A01 T02850132  RH  039%=      5-min Rain = 0
KEN1 200652Z 18017KT 29/13 A2994 RMK A01 T02850132  RH  039%=      5-min Rain = 0
KEN1 200653Z 18019KT 29/13 A2994 RMK A01 T02860133  RH  039%=      5-min Rain = 0
KEN1 200654Z 18019G24KT 29/13 A2994 RMK A01 T02860132  RH  039%=      5-min Rain = 0
KEN1 200655Z 18017KT 29/13 A2994 RMK A01 T02870133  RH  039%=      5-min Rain = 0
KEN1 200656Z 18017KT 29/13 A2994 RMK A01 T02860133  RH  039%=      5-min Rain = 0
KEN1 200657Z 18018G23KT 29/13 A2994 RMK A01 T02860133  RH  039%=      5-min Rain = 0
KEN1 200658Z 19017G22KT 29/13 A2994 RMK A01 T02860133  RH  039%=      5-min Rain = 0
KEN1 200659Z 18016KT 29/13 A2994 RMK A01 T02860133  RH  039%=      5-min Rain = 0
KEN1 200700Z 19020G26KT 29/13 A2994 RMK A01 T02860133  RH  039%=      5-min Rain = 0
KEN1 200701Z 19020G26KT 29/13 A2994 RMK A01 T02860133  RH  039%=      5-min Rain = 0
KEN1 200702Z 19018KT 29/13 A2994 RMK A01 T02870133  RH  039%=      5-min Rain = 0
KEN1 200703Z 19019KT 29/13 A2994 RMK A01 T02860133  RH  039%=      5-min Rain = 0
KEN1 200704Z 19018KT 29/13 A2994 RMK A01 T02860134  RH  039%=      5-min Rain = 0
KEN1 200705Z 19021KT 29/13 A2994 RMK A01 T02860133  RH  039%=      5-min Rain = 0
KEN1 200706Z 19020KT 29/13 A2994 RMK A01 T02870134  RH  039%=      5-min Rain = 0
KEN1 200707Z 19018KT 29/13 A2994 RMK A01 T02870134  RH  039%=      5-min Rain = 0
KEN1 200708Z 19018KT 29/13 A2994 RMK A01 T02870134  RH  039%=      5-min Rain = 0
KEN1 200709Z 19017KT 29/13 A2994 RMK A01 T02870134  RH  039%=      5-min Rain = 0
KEN1 200710Z 19020G25KT 29/13 A2994 RMK A01 T02870134  RH  039%=      5-min Rain = 0
KEN1 200711Z 19017KT 29/13 A2994 RMK A01 T02870133  RH  039%=      5-min Rain = 0
KEN1 200712Z 19018KT 29/13 A2995 RMK A01 T02870133  RH  039%=      5-min Rain = 0
KEN1 200713Z 19018G23KT 29/13 A2995 RMK A01 T02870133  RH  039%=      5-min Rain = 0
KEN1 200714Z 19019KT 29/13 A2995 RMK A01 T02860133  RH  039%=      5-min Rain = 0
KEN1 200715Z 19018KT 29/13 A2995 RMK A01 T02860133  RH  039%=      5-min Rain = 0
KEN1 200716Z 19020G25KT 29/13 A2995 RMK A01 T02860133  RH  039%=      5-min Rain = 0
KEN1 200717Z 18018KT 29/13 A2995 RMK A01 T02870133  RH  039%=      5-min Rain = 0
KEN1 200718Z 19017KT 29/13 A2995 RMK A01 T02870133  RH  039%=      5-min Rain = 0
KEN1 200719Z 19017KT 29/13 A2995 RMK A01 T02860133  RH  039%=      5-min Rain = 0
KEN1 200720Z 19017KT 29/13 A2995 RMK A01 T02850133  RH  039%=      5-min Rain = 0
KEN1 200721Z 19019KT 29/13 A2995 RMK A01 T02850133  RH  039%=      5-min Rain = 0
KEN1 200722Z 19015KT 29/13 A2995 RMK A01 T02850133  RH  039%=      5-min Rain = 0
KEN1 200723Z 18017KT 29/13 A2995 RMK A01 T02850133  RH  039%=      5-min Rain = 0
KEN1 200724Z 18017KT 28/13 A2995 RMK A01 T02840133  RH  039%=      5-min Rain = 0
KEN1 200725Z 19015KT 28/13 A2995 RMK A01 T02840133  RH  039%=      5-min Rain = 0
KEN1 200726Z 19018KT 28/13 A2995 RMK A01 T02840133  RH  040%=      5-min Rain = 0
KEN1 200727Z 19018KT 28/13 A2995 RMK A01 T02840133  RH  040%=      5-min Rain = 0
KEN1 200728Z 18016KT 28/13 A2995 RMK A01 T02840133  RH  040%=      5-min Rain = 0
KEN1 200729Z 19019KT 28/13 A2995 RMK A01 T02840133  RH  040%=      5-min Rain = 0
KEN1 200730Z 19016KT 28/13 A2995 RMK A01 T02840133  RH  039%=      5-min Rain = 0
KEN1 200731Z 19016KT 28/13 A2995 RMK A01 T02840133  RH  039%=      5-min Rain = 0
KEN1 200732Z 18015KT 28/13 A2995 RMK A01 T02840133  RH  039%=      5-min Rain = 0
KEN1 200733Z 18016KT 28/13 A2995 RMK A01 T02830133  RH  040%=      5-min Rain = 0
KEN1 200734Z 19017KT 28/13 A2995 RMK A01 T02820133  RH  040%=      5-min Rain = 0
KEN1 200735Z 19016KT 28/13 A2995 RMK A01 T02820133  RH  040%=      5-min Rain = 0
KEN1 200736Z 18017KT 28/13 A2995 RMK A01 T02820132  RH  040%=      5-min Rain = 0
KEN1 200737Z 18013KT 28/13 A2995 RMK A01 T02820133  RH  040%=      5-min Rain = 0
KEN1 200738Z 18013KT 28/13 A2996 RMK A01 T02810133  RH  040%=      5-min Rain = 0
KEN1 200739Z 18015KT 28/13 A2996 RMK A01 T02800133  RH  040%=      5-min Rain = 0
KEN1 200740Z 18014KT 28/13 A2996 RMK A01 T02800133  RH  040%=      5-min Rain = 0
KEN1 200741Z 18015KT 28/13 A2996 RMK A01 T02800132  RH  040%=      5-min Rain = 0
KEN1 200742Z 18013KT 28/13 A2996 RMK A01 T02800133  RH  040%=      5-min Rain = 0
KEN1 200743Z 18012KT 28/13 A2996 RMK A01 T02800133  RH  040%=      5-min Rain = 0
KEN1 200744Z 18013KT 28/13 A2996 RMK A01 T02780132  RH  041%=      5-min Rain = 0
KEN1 200745Z 18013KT 28/13 A2996 RMK A01 T02780133  RH  041%=      5-min Rain = 0
KEN1 200746Z 18013KT 28/13 A2996 RMK A01 T02780133  RH  041%=      5-min Rain = 0
KEN1 200747Z 19012KT 28/13 A2996 RMK A01 T02780133  RH  041%=      5-min Rain = 0
KEN1 200748Z 18013KT 28/13 A2996 RMK A01 T02780133  RH  041%=      5-min Rain = 0
KEN1 200749Z 18011KT 28/13 A2996 RMK A01 T02770132  RH  041%=      5-min Rain = 0
KEN1 200750Z 18012KT 28/13 A2996 RMK A01 T02760132  RH  041%=      5-min Rain = 0
KEN1 200751Z 19013KT 28/13 A2996 RMK A01 T02750132  RH  041%=      5-min Rain = 0
KEN1 200752Z 18010KT 28/13 A2996 RMK A01 T02760131  RH  041%=      5-min Rain = 0
KEN1 200753Z 19012KT 28/13 A2996 RMK A01 T02750131  RH  041%=      5-min Rain = 0
KEN1 200754Z 19010KT 28/13 A2996 RMK A01 T02750131  RH  041%=      5-min Rain = 0
KEN1 200755Z 19010KT 28/13 A2996 RMK A01 T02750132  RH  041%=      5-min Rain = 0
KEN1 200756Z 19012KT 27/13 A2996 RMK A01 T02740131  RH  041%=      5-min Rain = 0
KEN1 200757Z 19011KT 27/13 A2996 RMK A01 T02740131  RH  041%=      5-min Rain = 0
KEN1 200758Z 19010KT 27/13 A2996 RMK A01 T02730131  RH  041%=      5-min Rain = 0
KEN1 200759Z 19011KT 27/13 A2996 RMK A01 T02720131  RH  042%=      5-min Rain = 0
KEN1 200800Z 19011KT 27/13 A2996 RMK A01 T02720131  RH  042%=      5-min Rain = 0
KEN1 200801Z 19010KT 27/13 A2996 RMK A01 T02710131  RH  042%=      5-min Rain = 0
KEN1 200802Z 18010KT 27/13 A2996 RMK A01 T02700131  RH  042%=      5-min Rain = 0
KEN1 200803Z 19010KT 27/13 A2996 RMK A01 T02700131  RH  042%=      5-min Rain = 0
KEN1 200804Z 19009KT 27/13 A2996 RMK A01 T02690131  RH  043%=      5-min Rain = 0
KEN1 200805Z 18010G15KT 27/13 A2996 RMK A01 T02670131  RH  043%=      5-min Rain = 0
KEN1 200806Z 20013G18KT 27/13 A2995 RMK A01 T02670130  RH  043%=      5-min Rain = 0
KEN1 200807Z 19012KT 27/13 A2996 RMK A01 T02680131  RH  043%=      5-min Rain = 0
KEN1 200808Z 19010KT 27/13 A2996 RMK A01 T02690130  RH  042%=      5-min Rain = 0
KEN1 200809Z 19010KT 27/13 A2996 RMK A01 T02700130  RH  042%=      5-min Rain = 0
KEN1 200810Z 19009KT 27/13 A2996 RMK A01 T02690131  RH  042%=      5-min Rain = 0
KEN1 200811Z 20011KT 27/13 A2996 RMK A01 T02680130  RH  043%=      5-min Rain = 0
KEN1 200812Z 20012KT 27/13 A2996 RMK A01 T02670130  RH  043%=      5-min Rain = 0
KEN1 200813Z 19012KT 27/13 A2996 RMK A01 T02680129  RH  042%=      5-min Rain = 0
KEN1 200814Z 20013KT 27/13 A2996 RMK A01 T02700129  RH  042%=      5-min Rain = 0
KEN1 200815Z 20015G20KT 27/13 A2996 RMK A01 T02700129  RH  042%=      5-min Rain = 0
KEN1 200816Z 21015KT 27/13 A2996 RMK A01 T02720129  RH  041%=      5-min Rain = 0
KEN1 200817Z 21013KT 27/13 A2996 RMK A01 T02730129  RH  041%=      5-min Rain = 0
KEN1 200818Z 21013KT 27/13 A2996 RMK A01 T02740129  RH  041%=      5-min Rain = 0
KEN1 200819Z 21013KT 27/13 A2996 RMK A01 T02730130  RH  041%=      5-min Rain = 0
KEN1 200820Z 20015KT 27/13 A2996 RMK A01 T02730129  RH  041%=      5-min Rain = 0
KEN1 200821Z 20013KT 27/13 A2996 RMK A01 T02730129  RH  041%=      5-min Rain = 0
KEN1 200822Z 20014KT 27/13 A2996 RMK A01 T02730129  RH  041%=      5-min Rain = 0
KEN1 200823Z 20016KT 27/13 A2996 RMK A01 T02730129  RH  041%=      5-min Rain = 0
KEN1 200824Z 20016KT 27/13 A2996 RMK A01 T02730129  RH  041%=      5-min Rain = 0
KEN1 200825Z 20013G18KT 27/13 A2996 RMK A01 T02730129  RH  041%=      5-min Rain = 0
KEN1 200826Z 20013KT 27/13 A2996 RMK A01 T02720129  RH  041%=      5-min Rain = 0
KEN1 200827Z 20014KT 27/13 A2996 RMK A01 T02710129  RH  041%=      5-min Rain = 0
KEN1 200828Z 20013KT 27/13 A2996 RMK A01 T02700129  RH  041%=      5-min Rain = 0
KEN1 200829Z 20014KT 27/13 A2996 RMK A01 T02700129  RH  042%=      5-min Rain = 0
KEN1 200830Z 20014KT 27/13 A2996 RMK A01 T02700129  RH  042%=      5-min Rain = 0
KEN1 200831Z 20013KT 27/13 A2996 RMK A01 T02700129  RH  042%=      5-min Rain = 0
KEN1 200832Z 21014KT 27/13 A2996 RMK A01 T02700129  RH  042%=      5-min Rain = 0
KEN1 200833Z 20013KT 27/13 A2996 RMK A01 T02690128  RH  042%=      5-min Rain = 0
KEN1 200834Z 20014KT 27/13 A2996 RMK A01 T02690128  RH  042%=      5-min Rain = 0
KEN1 200835Z 20012KT 27/13 A2996 RMK A01 T02690129  RH  042%=      5-min Rain = 0
KEN1 200836Z 20014KT 27/13 A2996 RMK A01 T02690129  RH  042%=      5-min Rain = 0
KEN1 200837Z 19014KT 27/13 A2996 RMK A01 T02690128  RH  042%=      5-min Rain = 0
KEN1 200838Z 19013KT 27/13 A2996 RMK A01 T02690129  RH  042%=      5-min Rain = 0
KEN1 200839Z 19013KT 27/13 A2996 RMK A01 T02690129  RH  042%=      5-min Rain = 0
KEN1 200840Z 19012KT 27/13 A2996 RMK A01 T02690129  RH  042%=      5-min Rain = 0
KEN1 200841Z 20011KT 27/13 A2996 RMK A01 T02680129  RH  042%=      5-min Rain = 0
KEN1 200842Z 19012KT 27/13 A2996 RMK A01 T02660128  RH  042%=      5-min Rain = 0
KEN1 200843Z 19013KT 27/13 A2996 RMK A01 T02660128  RH  043%=      5-min Rain = 0
KEN1 200844Z 19012KT 27/13 A2996 RMK A01 T02660129  RH  043%=      5-min Rain = 0
KEN1 200845Z 20012KT 27/13 A2996 RMK A01 T02660129  RH  043%=      5-min Rain = 0
KEN1 200846Z 20011KT 27/13 A2996 RMK A01 T02650128  RH  043%=      5-min Rain = 0
KEN1 200847Z 20011KT 27/13 A2996 RMK A01 T02650129  RH  043%=      5-min Rain = 0
KEN1 200848Z 20012KT 26/13 A2996 RMK A01 T02640128  RH  043%=      5-min Rain = 0
KEN1 200849Z 21012KT 27/13 A2996 RMK A01 T02650128  RH  043%=      5-min Rain = 0
KEN1 200850Z 20010KT 27/13 A2996 RMK A01 T02650129  RH  043%=      5-min Rain = 0
KEN1 200851Z 20010KT 26/13 A2996 RMK A01 T02640128  RH  043%=      5-min Rain = 0
KEN1 200852Z 20011KT 26/13 A2996 RMK A01 T02630128  RH  043%=      5-min Rain = 0
KEN1 200853Z 20011KT 26/13 A2996 RMK A01 T02630128  RH  043%=      5-min Rain = 0
KEN1 200854Z 20010KT 26/13 A2996 RMK A01 T02630128  RH  043%=      5-min Rain = 0
KEN1 200855Z 19011KT 26/13 A2996 RMK A01 T02630128  RH  043%=      5-min Rain = 0
KEN1 200856Z 19010KT 26/13 A2996 RMK A01 T02630128  RH  043%=      5-min Rain = 0
KEN1 200857Z 19009KT 26/13 A2996 RMK A01 T02630128  RH  043%=      5-min Rain = 0
KEN1 200858Z 19010KT 26/13 A2996 RMK A01 T02620128  RH  043%=      5-min Rain = 0
KEN1 200859Z 20012KT 26/13 A2996 RMK A01 T02620128  RH  043%=      5-min Rain = 0
KEN1 200900Z 20010KT 26/13 A2996 RMK A01 T02620128  RH  043%=      5-min Rain = 0
KEN1 200901Z 20011KT 26/13 A2996 RMK A01 T02620128  RH  043%=      5-min Rain = 0
KEN1 200902Z 20011KT 26/13 A2996 RMK A01 T02620128  RH  043%=      5-min Rain = 0
KEN1 200903Z 20011KT 26/13 A2996 RMK A01 T02620128  RH  043%=      5-min Rain = 0
KEN1 200904Z 20011KT 26/13 A2996 RMK A01 T02630127  RH  043%=      5-min Rain = 0
KEN1 200905Z 20012KT 26/13 A2996 RMK A01 T02630127  RH  043%=      5-min Rain = 0
KEN1 200906Z 20010KT 26/13 A2996 RMK A01 T02630127  RH  043%=      5-min Rain = 0
KEN1 200907Z 20011KT 26/13 A2996 RMK A01 T02630127  RH  043%=      5-min Rain = 0
KEN1 200908Z 19013KT 26/13 A2996 RMK A01 T02630127  RH  043%=      5-min Rain = 0
KEN1 200909Z 20012KT 26/13 A2996 RMK A01 T02630127  RH  043%=      5-min Rain = 0
KEN1 200910Z 20011KT 26/13 A2996 RMK A01 T02630127  RH  043%=      5-min Rain = 0
KEN1 200911Z 19012G17KT 26/13 A2996 RMK A01 T02620127  RH  043%=      5-min Rain = 0
KEN1 200912Z 19010KT 26/13 A2996 RMK A01 T02620127  RH  043%=      5-min Rain = 0
KEN1 200913Z 19012KT 26/13 A2996 RMK A01 T02620127  RH  043%=      5-min Rain = 0
KEN1 200914Z 18010KT 26/13 A2995 RMK A01 T02620127  RH  043%=      5-min Rain = 0
KEN1 200915Z 19011KT 26/13 A2995 RMK A01 T02610127  RH  043%=      5-min Rain = 0
KEN1 200916Z 19013KT 26/13 A2995 RMK A01 T02610127  RH  043%=      5-min Rain = 0
KEN1 200917Z 18011KT 26/13 A2995 RMK A01 T02620127  RH  043%=      5-min Rain = 0
KEN1 200918Z 19010KT 26/13 A2995 RMK A01 T02610127  RH  043%=      5-min Rain = 0
KEN1 200919Z 19012KT 26/13 A2995 RMK A01 T02590127  RH  044%=      5-min Rain = 0
KEN1 200920Z 19011KT 26/13 A2995 RMK A01 T02580127  RH  044%=      5-min Rain = 0
KEN1 200921Z 19012KT 26/13 A2995 RMK A01 T02580127  RH  044%=      5-min Rain = 0
KEN1 200922Z 19013KT 26/13 A2995 RMK A01 T02590127  RH  044%=      5-min Rain = 0
KEN1 200923Z 19012KT 26/13 A2995 RMK A01 T02590126  RH  044%=      5-min Rain = 0
KEN1 200924Z 19013KT 26/13 A2995 RMK A01 T02590126  RH  044%=      5-min Rain = 0
KEN1 200925Z 18012KT 26/13 A2995 RMK A01 T02600126  RH  043%=      5-min Rain = 0
KEN1 200926Z 19012KT 26/13 A2995 RMK A01 T02600127  RH  044%=      5-min Rain = 0
KEN1 200927Z 18012KT 26/13 A2995 RMK A01 T02600127  RH  044%=      5-min Rain = 0
KEN1 200928Z 18012KT 26/13 A2995 RMK A01 T02590126  RH  044%=      5-min Rain = 0
KEN1 200929Z 19010KT 26/13 A2995 RMK A01 T02590127  RH  044%=      5-min Rain = 0
KEN1 200930Z 19011KT 26/13 A2995 RMK A01 T02580126  RH  044%=      5-min Rain = 0
KEN1 200931Z 19011KT 26/13 A2995 RMK A01 T02570126  RH  044%=      5-min Rain = 0
KEN1 200932Z 19011KT 26/13 A2995 RMK A01 T02570126  RH  044%=      5-min Rain = 0
KEN1 200933Z 19010KT 26/13 A2995 RMK A01 T02570127  RH  044%=      5-min Rain = 0
KEN1 200934Z 19010KT 26/13 A2995 RMK A01 T02560126  RH  044%=      5-min Rain = 0
KEN1 200935Z 19011KT 26/13 A2995 RMK A01 T02560126  RH  044%=      5-min Rain = 0
KEN1 200936Z 19011KT 26/13 A2995 RMK A01 T02550126  RH  045%=      5-min Rain = 0
KEN1 200937Z 19011KT 26/13 A2995 RMK A01 T02550126  RH  045%=      5-min Rain = 0
KEN1 200938Z 18014KT 26/13 A2995 RMK A01 T02550126  RH  044%=      5-min Rain = 0
KEN1 200939Z 18013KT 26/13 A2995 RMK A01 T02560126  RH  044%=      5-min Rain = 0
KEN1 200940Z 19014KT 26/13 A2995 RMK A01 T02570125  RH  044%=      5-min Rain = 0
KEN1 200941Z 18015KT 26/13 A2995 RMK A01 T02580125  RH  044%=      5-min Rain = 0
KEN1 200942Z 18015KT 26/13 A2995 RMK A01 T02590125  RH  043%=      5-min Rain = 0
KEN1 200943Z 18013KT 26/13 A2995 RMK A01 T02590125  RH  043%=      5-min Rain = 0
KEN1 200944Z 18014KT 26/13 A2995 RMK A01 T02590125  RH  043%=      5-min Rain = 0
KEN1 200945Z 18014KT 26/13 A2995 RMK A01 T02590126  RH  043%=      5-min Rain = 0
KEN1 200946Z 18014KT 26/13 A2995 RMK A01 T02590126  RH  044%=      5-min Rain = 0
KEN1 200947Z 18013KT 26/13 A2995 RMK A01 T02590126  RH  044%=      5-min Rain = 0
KEN1 200948Z 18013KT 26/13 A2995 RMK A01 T02580125  RH  044%=      5-min Rain = 0
KEN1 200949Z 18013KT 26/13 A2995 RMK A01 T02570125  RH  044%=      5-min Rain = 0
KEN1 200950Z 18013KT 26/13 A2995 RMK A01 T02560125  RH  044%=      5-min Rain = 0
KEN1 200951Z 18015KT 26/13 A2995 RMK A01 T02570125  RH  044%=      5-min Rain = 0
KEN1 200952Z 18014KT 26/12 A2995 RMK A01 T02570124  RH  044%=      5-min Rain = 0
KEN1 200953Z 18015KT 26/13 A2995 RMK A01 T02570125  RH  044%=      5-min Rain = 0
KEN1 200954Z 18016KT 26/13 A2995 RMK A01 T02570125  RH  044%=      5-min Rain = 0
KEN1 200955Z 18014KT 26/12 A2995 RMK A01 T02570124  RH  044%=      5-min Rain = 0
KEN1 200956Z 18015G20KT 26/12 A2995 RMK A01 T02570124  RH  044%=      5-min Rain = 0
KEN1 200957Z 19013KT 26/12 A2995 RMK A01 T02570124  RH  044%=      5-min Rain = 0
KEN1 200958Z 18016KT 26/12 A2995 RMK A01 T02570124  RH  044%=      5-min Rain = 0
KEN1 200959Z 18014KT 26/12 A2995 RMK A01 T02570124  RH  044%=      5-min Rain = 0
KEN1 201000Z 18013KT 26/12 A2995 RMK A01 T02570124  RH  044%=      5-min Rain = 0
KEN1 201001Z 18013KT 26/12 A2995 RMK A01 T02570124  RH  044%=      5-min Rain = 0
KEN1 201002Z 18012KT 26/12 A2995 RMK A01 T02550124  RH  044%=      5-min Rain = 0
KEN1 201003Z 18012KT 25/12 A2995 RMK A01 T02530123  RH  045%=      5-min Rain = 0
KEN1 201004Z 18012KT 25/12 A2995 RMK A01 T02510123  RH  045%=      5-min Rain = 0
KEN1 201005Z 18011KT 25/12 A2995 RMK A01 T02490123  RH  045%=      5-min Rain = 0
KEN1 201006Z 17011KT 25/12 A2995 RMK A01 T02480122  RH  045%=      5-min Rain = 0
KEN1 201007Z 18011KT 25/12 A2995 RMK A01 T02480122  RH  045%=      5-min Rain = 0
KEN1 201008Z 18011KT 25/12 A2995 RMK A01 T02470122  RH  045%=      5-min Rain = 0
KEN1 201009Z 18011KT 25/12 A2995 RMK A01 T02470122  RH  046%=      5-min Rain = 0
KEN1 201010Z 18011KT 25/12 A2995 RMK A01 T02460122  RH  046%=      5-min Rain = 0
KEN1 201011Z 17010KT 25/12 A2995 RMK A01 T02450121  RH  046%=      5-min Rain = 0
KEN1 201012Z 18010KT 24/12 A2995 RMK A01 T02430121  RH  046%=      5-min Rain = 0
KEN1 201013Z 18010KT 24/12 A2995 RMK A01 T02420121  RH  047%=      5-min Rain = 0
KEN1 201014Z 18010KT 24/12 A2995 RMK A01 T02420122  RH  047%=      5-min Rain = 0
KEN1 201015Z 18011KT 24/12 A2995 RMK A01 T02410121  RH  047%=      5-min Rain = 0
KEN1 201016Z 18011KT 24/12 A2995 RMK A01 T02410121  RH  047%=      5-min Rain = 0
KEN1 201017Z 18011KT 24/12 A2995 RMK A01 T02410121  RH  047%=      5-min Rain = 0
KEN1 201018Z 18011KT 24/12 A2995 RMK A01 T02410121  RH  047%=      5-min Rain = 0
KEN1 201019Z 18011KT 24/12 A2995 RMK A01 T02410121  RH  047%=      5-min Rain = 0
KEN1 201020Z 18010KT 24/12 A2995 RMK A01 T02400121  RH  047%=      5-min Rain = 0
KEN1 201021Z 18010KT 24/12 A2995 RMK A01 T02400121  RH  047%=      5-min Rain = 0
KEN1 201022Z 18011KT 24/12 A2995 RMK A01 T02400121  RH  047%=      5-min Rain = 0
KEN1 201023Z 18011KT 24/12 A2995 RMK A01 T02390120  RH  047%=      5-min Rain = 0
KEN1 201024Z 18011KT 24/12 A2995 RMK A01 T02400120  RH  047%=      5-min Rain = 0
KEN1 201025Z 18011KT 24/12 A2995 RMK A01 T02410120  RH  047%=      5-min Rain = 0
KEN1 201026Z 18011KT 24/12 A2995 RMK A01 T02420121  RH  047%=      5-min Rain = 0
KEN1 201027Z 18009KT 24/12 A2995 RMK A01 T02420121  RH  047%=      5-min Rain = 0
KEN1 201028Z 18010KT 24/12 A2995 RMK A01 T02410121  RH  047%=      5-min Rain = 0
KEN1 201029Z 19010KT 24/12 A2995 RMK A01 T02400120  RH  047%=      5-min Rain = 0
KEN1 201030Z 19009KT 24/12 A2995 RMK A01 T02390120  RH  047%=      5-min Rain = 0
KEN1 201031Z 19009KT 24/12 A2995 RMK A01 T02390120  RH  047%=      5-min Rain = 0
KEN1 201032Z 19009KT 24/12 A2995 RMK A01 T02380120  RH  048%=      5-min Rain = 0
KEN1 201033Z 19009KT 24/12 A2995 RMK A01 T02370120  RH  048%=      5-min Rain = 0
KEN1 201034Z 19010KT 24/12 A2995 RMK A01 T02370120  RH  048%=      5-min Rain = 0
KEN1 201035Z 19009KT 24/12 A2995 RMK A01 T02380120  RH  047%=      5-min Rain = 0
KEN1 201036Z 19009KT 24/12 A2995 RMK A01 T02390120  RH  047%=      5-min Rain = 0
KEN1 201037Z 19008KT 24/12 A2995 RMK A01 T02380120  RH  047%=      5-min Rain = 0
KEN1 201038Z 20008KT 24/12 A2995 RMK A01 T02380120  RH  048%=      5-min Rain = 0
KEN1 201039Z 20007KT 24/12 A2995 RMK A01 T02370120  RH  048%=      5-min Rain = 0
KEN1 201040Z 19009KT 24/12 A2995 RMK A01 T02350120  RH  048%=      5-min Rain = 0
KEN1 201041Z 20008KT 24/12 A2995 RMK A01 T02350120  RH  048%=      5-min Rain = 0
KEN1 201042Z 20008KT 23/12 A2995 RMK A01 T02340120  RH  048%=      5-min Rain = 0
KEN1 201043Z 19007KT 23/12 A2995 RMK A01 T02340120  RH  048%=      5-min Rain = 0
KEN1 201044Z 20008KT 23/12 A2995 RMK A01 T02340119  RH  049%=      5-min Rain = 0
KEN1 201045Z 19008KT 23/12 A2995 RMK A01 T02330119  RH  049%=      5-min Rain = 0
KEN1 201046Z 19009KT 23/12 A2995 RMK A01 T02340119  RH  048%=      5-min Rain = 0
KEN1 201047Z 19008KT 24/12 A2995 RMK A01 T02350119  RH  048%=      5-min Rain = 0
KEN1 201048Z 19010KT 24/12 A2995 RMK A01 T02360119  RH  048%=      5-min Rain = 0
KEN1 201049Z 19010KT 24/12 A2995 RMK A01 T02360119  RH  048%=      5-min Rain = 0
KEN1 201050Z 19010KT 24/12 A2995 RMK A01 T02370119  RH  048%=      5-min Rain = 0
KEN1 201051Z 19008KT 24/12 A2995 RMK A01 T02380119  RH  047%=      5-min Rain = 0
KEN1 201052Z 19009KT 24/12 A2995 RMK A01 T02380119  RH  047%=      5-min Rain = 0
KEN1 201053Z 19008KT 24/12 A2995 RMK A01 T02380119  RH  047%=      5-min Rain = 0
KEN1 201054Z 19010KT 24/12 A2995 RMK A01 T02380119  RH  047%=      5-min Rain = 0
KEN1 201055Z 19010KT 24/12 A2995 RMK A01 T02390119  RH  047%=      5-min Rain = 0
KEN1 201056Z 19009KT 24/12 A2995 RMK A01 T02400119  RH  047%=      5-min Rain = 0
KEN1 201057Z 19010KT 24/12 A2995 RMK A01 T02410119  RH  046%=      5-min Rain = 0
KEN1 201058Z 19009KT 24/12 A2995 RMK A01 T02410119  RH  047%=      5-min Rain = 0
KEN1 201059Z 19010KT 24/12 A2995 RMK A01 T02400119  RH  047%=      5-min Rain = 0
KEN1 201100Z 19009KT 24/12 A2995 RMK A01 T02400119  RH  047%=      5-min Rain = 0
KEN1 201101Z 19010KT 24/12 A2995 RMK A01 T02400119  RH  047%=      5-min Rain = 0
KEN1 201102Z 19011KT 24/12 A2995 RMK A01 T02400119  RH  047%=      5-min Rain = 0
KEN1 201103Z 19011KT 24/12 A2995 RMK A01 T02410119  RH  046%=      5-min Rain = 0
KEN1 201104Z 19010KT 24/12 A2995 RMK A01 T02420119  RH  046%=      5-min Rain = 0
KEN1 201105Z 19010KT 24/12 A2995 RMK A01 T02420119  RH  046%=      5-min Rain = 0
KEN1 201106Z 19012KT 24/12 A2995 RMK A01 T02420119  RH  046%=      5-min Rain = 0
KEN1 201107Z 19012KT 24/12 A2995 RMK A01 T02440119  RH  046%=      5-min Rain = 0
KEN1 201108Z 19010KT 24/12 A2995 RMK A01 T02440119  RH  046%=      5-min Rain = 0
KEN1 201109Z 19010KT 24/12 A2995 RMK A01 T02440119  RH  046%=      5-min Rain = 0
KEN1 201110Z 19011KT 24/12 A2995 RMK A01 T02430119  RH  046%=      5-min Rain = 0
KEN1 201111Z 19010KT 24/12 A2995 RMK A01 T02420119  RH  046%=      5-min Rain = 0
KEN1 201112Z 19011KT 24/12 A2995 RMK A01 T02420119  RH  046%=      5-min Rain = 0
KEN1 201113Z 18011KT 24/12 A2995 RMK A01 T02410119  RH  046%=      5-min Rain = 0
KEN1 201114Z 19012KT 24/12 A2995 RMK A01 T02410119  RH  046%=      5-min Rain = 0
KEN1 201115Z 18013KT 24/12 A2995 RMK A01 T02420119  RH  046%=      5-min Rain = 0
KEN1 201116Z 18012KT 24/12 A2995 RMK A01 T02420119  RH  046%=      5-min Rain = 0
KEN1 201117Z 18013KT 24/12 A2995 RMK A01 T02420119  RH  046%=      5-min Rain = 0
KEN1 201118Z 18013KT 24/12 A2995 RMK A01 T02420119  RH  046%=      5-min Rain = 0
KEN1 201119Z 18012KT 24/12 A2995 RMK A01 T02420119  RH  046%=      5-min Rain = 0
KEN1 201120Z 18012KT 24/12 A2995 RMK A01 T02420119  RH  046%=      5-min Rain = 0
KEN1 201121Z 18012KT 24/12 A2995 RMK A01 T02420119  RH  046%=      5-min Rain = 0
KEN1 201122Z 18012KT 24/12 A2995 RMK A01 T02420119  RH  046%=      5-min Rain = 0
KEN1 201123Z 18011KT 24/12 A2995 RMK A01 T02410119  RH  046%=      5-min Rain = 0
KEN1 201124Z 18012KT 24/12 A2995 RMK A01 T02400119  RH  047%=      5-min Rain = 0
KEN1 201125Z 18013KT 24/12 A2994 RMK A01 T02390119  RH  047%=      5-min Rain = 0
KEN1 201126Z 18013KT 24/12 A2994 RMK A01 T02390119  RH  047%=      5-min Rain = 0
KEN1 201127Z 18013KT 24/12 A2994 RMK A01 T02390119  RH  047%=      5-min Rain = 0
KEN1 201128Z 18012KT 24/12 A2994 RMK A01 T02390119  RH  047%=      5-min Rain = 0
KEN1 201129Z 17013KT 24/12 A2994 RMK A01 T02380119  RH  047%=      5-min Rain = 0
KEN1 201130Z 17013KT 24/12 A2994 RMK A01 T02380119  RH  047%=      5-min Rain = 0
KEN1 201131Z 18013KT 24/12 A2994 RMK A01 T02380119  RH  047%=      5-min Rain = 0
KEN1 201132Z 17011KT 24/12 A2994 RMK A01 T02370119  RH  047%=      5-min Rain = 0
KEN1 201133Z 17012KT 24/12 A2994 RMK A01 T02360119  RH  048%=      5-min Rain = 0
KEN1 201134Z 17011KT 24/12 A2994 RMK A01 T02360119  RH  048%=      5-min Rain = 0
KEN1 201135Z 17012KT 24/12 A2994 RMK A01 T02350119  RH  048%=      5-min Rain = 0
KEN1 201136Z 17013KT 23/12 A2994 RMK A01 T02340119  RH  048%=      5-min Rain = 0
KEN1 201137Z 17012KT 23/12 A2995 RMK A01 T02340118  RH  048%=      5-min Rain = 0
KEN1 201138Z 17011KT 23/12 A2995 RMK A01 T02340119  RH  048%=      5-min Rain = 0
KEN1 201139Z 17011KT 23/12 A2995 RMK A01 T02330119  RH  048%=      5-min Rain = 0
KEN1 201140Z 17011KT 23/12 A2995 RMK A01 T02330119  RH  049%=      5-min Rain = 0
KEN1 201141Z 17010KT 23/12 A2995 RMK A01 T02330119  RH  049%=      5-min Rain = 0
KEN1 201142Z 17009KT 23/12 A2995 RMK A01 T02330119  RH  049%=      5-min Rain = 0
KEN1 201143Z 17011KT 23/12 A2995 RMK A01 T02320119  RH  049%=      5-min Rain = 0
KEN1 201144Z 17012KT 23/12 A2995 RMK A01 T02320119  RH  049%=      5-min Rain = 0
KEN1 201145Z 17011KT 23/12 A2995 RMK A01 T02320119  RH  049%=      5-min Rain = 0
KEN1 201146Z 17011KT 23/12 A2994 RMK A01 T02320119  RH  049%=      5-min Rain = 0
KEN1 201147Z 17012KT 23/12 A2994 RMK A01 T02320119  RH  049%=      5-min Rain = 0
KEN1 201148Z 17013KT 23/12 A2994 RMK A01 T02320119  RH  049%=      5-min Rain = 0
KEN1 201149Z 17014KT 23/12 A2994 RMK A01 T02320119  RH  049%=      5-min Rain = 0
KEN1 201150Z 17013KT 23/12 A2994 RMK A01 T02320119  RH  049%=      5-min Rain = 0
KEN1 201151Z 17014KT 23/12 A2994 RMK A01 T02320119  RH  049%=      5-min Rain = 0
KEN1 201152Z 17013KT 23/12 A2994 RMK A01 T02320119  RH  049%=      5-min Rain = 0
KEN1 201153Z 17013KT 23/12 A2994 RMK A01 T02320119  RH  049%=      5-min Rain = 0
KEN1 201154Z 16012KT 23/12 A2994 RMK A01 T02320119  RH  049%=      5-min Rain = 0
KEN1 201155Z 17013KT 23/12 A2994 RMK A01 T02310119  RH  049%=      5-min Rain = 0
KEN1 201156Z 16013KT 23/12 A2994 RMK A01 T02310119  RH  049%=      5-min Rain = 0
KEN1 201157Z 16013KT 23/12 A2994 RMK A01 T02310119  RH  049%=      5-min Rain = 0
KEN1 201158Z 16013KT 23/12 A2994 RMK A01 T02310119  RH  049%=      5-min Rain = 0
KEN1 201159Z 16014KT 23/12 A2994 RMK A01 T02310119  RH  049%=      5-min Rain = 0
KEN1 201200Z 16013KT 23/12 A2994 RMK A01 T02310119  RH  049%=      5-min Rain = 0
KEN1 201201Z 17013KT 23/12 A2995 RMK A01 T02320119  RH  049%=      5-min Rain = 0
KEN1 201202Z 16013KT 23/12 A2995 RMK A01 T02320119  RH  049%=      5-min Rain = 0
KEN1 201203Z 16013KT 23/12 A2994 RMK A01 T02320119  RH  049%=      5-min Rain = 0
KEN1 201204Z 16013KT 23/12 A2994 RMK A01 T02320118  RH  049%=      5-min Rain = 0
KEN1 201205Z 16014KT 23/12 A2994 RMK A01 T02320119  RH  049%=      5-min Rain = 0
KEN1 201206Z 16014KT 23/12 A2994 RMK A01 T02330119  RH  049%=      5-min Rain = 0
KEN1 201207Z 16014KT 23/12 A2994 RMK A01 T02330119  RH  049%=      5-min Rain = 0
KEN1 201208Z 16014KT 23/12 A2994 RMK A01 T02340119  RH  048%=      5-min Rain = 0
KEN1 201209Z 16014KT 23/12 A2994 RMK A01 T02340119  RH  048%=      5-min Rain = 0
KEN1 201210Z 16013KT 23/12 A2994 RMK A01 T02340119  RH  048%=      5-min Rain = 0
KEN1 201211Z 16014KT 23/12 A2994 RMK A01 T02340119  RH  048%=      5-min Rain = 0
KEN1 201212Z 16014KT 23/12 A2994 RMK A01 T02340119  RH  048%=      5-min Rain = 0
KEN1 201213Z 16015KT 23/12 A2994 RMK A01 T02340119  RH  048%=      5-min Rain = 0
KEN1 201214Z 16014KT 23/12 A2994 RMK A01 T02340119  RH  048%=      5-min Rain = 0
KEN1 201215Z 16015KT 23/12 A2994 RMK A01 T02340119  RH  048%=      5-min Rain = 0
KEN1 201216Z 16014KT 23/12 A2994 RMK A01 T02340119  RH  048%=      5-min Rain = 0
KEN1 201217Z 16014KT 24/12 A2994 RMK A01 T02350119  RH  048%=      5-min Rain = 0
KEN1 201218Z 16014KT 24/12 A2995 RMK A01 T02350119  RH  048%=      5-min Rain = 0
KEN1 201219Z 16013KT 24/12 A2995 RMK A01 T02360119  RH  048%=      5-min Rain = 0
KEN1 201220Z 16014KT 24/12 A2995 RMK A01 T02360119  RH  048%=      5-min Rain = 0
KEN1 201221Z 16012KT 24/12 A2995 RMK A01 T02360119  RH  048%=      5-min Rain = 0
KEN1 201222Z 16012KT 24/12 A2995 RMK A01 T02360119  RH  048%=      5-min Rain = 0
KEN1 201223Z 16012KT 24/12 A2995 RMK A01 T02360120  RH  048%=      5-min Rain = 0
KEN1 201224Z 17012KT 24/12 A2995 RMK A01 T02360120  RH  048%=      5-min Rain = 0
KEN1 201225Z 17012KT 24/12 A2995 RMK A01 T02360120  RH  048%=      5-min Rain = 0
KEN1 201226Z 17012KT 24/12 A2995 RMK A01 T02360120  RH  048%=      5-min Rain = 0
KEN1 201227Z 17012KT 24/12 A2995 RMK A01 T02370120  RH  048%=      5-min Rain = 0
KEN1 201228Z 17011KT 24/12 A2995 RMK A01 T02370120  RH  048%=      5-min Rain = 0
KEN1 201229Z 17011KT 24/12 A2995 RMK A01 T02370120  RH  048%=      5-min Rain = 0
KEN1 201230Z 17011KT 24/12 A2995 RMK A01 T02380120  RH  048%=      5-min Rain = 0
KEN1 201231Z 17011KT 24/12 A2995 RMK A01 T02380120  RH  048%=      5-min Rain = 0
KEN1 201232Z 17012KT 24/12 A2995 RMK A01 T02380120  RH  048%=      5-min Rain = 0
KEN1 201233Z 17011KT 24/12 A2995 RMK A01 T02390120  RH  047%=      5-min Rain = 0
KEN1 201234Z 17011KT 24/12 A2995 RMK A01 T02390120  RH  047%=      5-min Rain = 0
KEN1 201235Z 17010KT 24/12 A2995 RMK A01 T02390120  RH  047%=      5-min Rain = 0
KEN1 201236Z 18009KT 24/12 A2995 RMK A01 T02390120  RH  047%=      5-min Rain = 0
KEN1 201237Z 18009KT 24/12 A2995 RMK A01 T02400121  RH  047%=      5-min Rain = 0
KEN1 201238Z 17008KT 24/12 A2995 RMK A01 T02400121  RH  047%=      5-min Rain = 0
KEN1 201239Z 18009KT 24/12 A2995 RMK A01 T02400121  RH  047%=      5-min Rain = 0
KEN1 201240Z 18009KT 24/12 A2995 RMK A01 T02400121  RH  047%=      5-min Rain = 0
KEN1 201241Z 18010KT 24/12 A2995 RMK A01 T02410121  RH  047%=      5-min Rain = 0
KEN1 201242Z 19009KT 24/12 A2995 RMK A01 T02410122  RH  047%=      5-min Rain = 0
KEN1 201243Z 19009KT 24/12 A2995 RMK A01 T02420122  RH  047%=      5-min Rain = 0
KEN1 201244Z 19008KT 24/12 A2995 RMK A01 T02430122  RH  047%=      5-min Rain = 0
KEN1 201245Z 19010KT 24/12 A2995 RMK A01 T02440123  RH  047%=      5-min Rain = 0
KEN1 201246Z 19009KT 24/12 A2995 RMK A01 T02440122  RH  047%=      5-min Rain = 0
KEN1 201247Z 19008KT 24/12 A2995 RMK A01 T02440123  RH  047%=      5-min Rain = 0
KEN1 201248Z 19009KT 25/12 A2995 RMK A01 T02450123  RH  047%=      5-min Rain = 0
KEN1 201249Z 18009KT 25/12 A2995 RMK A01 T02450123  RH  046%=      5-min Rain = 0
KEN1 201250Z 18009KT 25/12 A2995 RMK A01 T02460123  RH  046%=      5-min Rain = 0
KEN1 201251Z 18010KT 25/12 A2995 RMK A01 T02460123  RH  046%=      5-min Rain = 0
KEN1 201252Z 18009KT 25/12 A2995 RMK A01 T02470123  RH  046%=      5-min Rain = 0
KEN1 201253Z 18010KT 25/12 A2995 RMK A01 T02480124  RH  046%=      5-min Rain = 0
KEN1 201254Z 18009KT 25/12 A2995 RMK A01 T02480124  RH  046%=      5-min Rain = 0
KEN1 201255Z 18010KT 25/12 A2995 RMK A01 T02490124  RH  046%=      5-min Rain = 0
KEN1 201256Z 18010KT 25/12 A2995 RMK A01 T02490124  RH  046%=      5-min Rain = 0
KEN1 201257Z 18011KT 25/12 A2995 RMK A01 T02500124  RH  045%=      5-min Rain = 0
KEN1 201258Z 18011KT 25/12 A2995 RMK A01 T02500124  RH  045%=      5-min Rain = 0
KEN1 201259Z 18011KT 25/12 A2995 RMK A01 T02510124  RH  045%=      5-min Rain = 0
KEN1 201300Z 18010KT 25/12 A2995 RMK A01 T02510124  RH  045%=      5-min Rain = 0
KEN1 201301Z 18010KT 25/12 A2995 RMK A01 T02520124  RH  045%=      5-min Rain = 0
KEN1 201302Z 18010KT 25/12 A2995 RMK A01 T02520124  RH  045%=      5-min Rain = 0
KEN1 201303Z 18009KT 25/13 A2995 RMK A01 T02530125  RH  045%=      5-min Rain = 0
KEN1 201304Z 18011KT 25/13 A2995 RMK A01 T02530125  RH  045%=      5-min Rain = 0
KEN1 201305Z 18010KT 25/13 A2995 RMK A01 T02540125  RH  045%=      5-min Rain = 0
KEN1 201306Z 18011KT 25/13 A2995 RMK A01 T02540125  RH  045%=      5-min Rain = 0
KEN1 201307Z 18009KT 26/13 A2995 RMK A01 T02550125  RH  044%=      5-min Rain = 0
KEN1 201308Z 17009KT 26/13 A2996 RMK A01 T02550126  RH  044%=      5-min Rain = 0
KEN1 201309Z 18010KT 26/13 A2996 RMK A01 T02560126  RH  044%=      5-min Rain = 0
KEN1 201310Z 18009KT 26/13 A2996 RMK A01 T02580126  RH  044%=      5-min Rain = 0
KEN1 201311Z 18010KT 26/13 A2996 RMK A01 T02580126  RH  044%=      5-min Rain = 0
KEN1 201312Z 18008KT 26/13 A2996 RMK A01 T02580126  RH  044%=      5-min Rain = 0
KEN1 201313Z 18009KT 26/13 A2996 RMK A01 T02590127  RH  044%=      5-min Rain = 0
KEN1 201314Z 19008KT 26/13 A2996 RMK A01 T02600127  RH  044%=      5-min Rain = 0
KEN1 201315Z 18009KT 26/13 A2996 RMK A01 T02600127  RH  043%=      5-min Rain = 0
KEN1 201316Z 18008KT 26/13 A2996 RMK A01 T02610127  RH  043%=      5-min Rain = 0
KEN1 201317Z 18007KT 26/13 A2996 RMK A01 T02620127  RH  043%=      5-min Rain = 0
KEN1 201318Z 19009KT 26/13 A2996 RMK A01 T02620127  RH  043%=      5-min Rain = 0
KEN1 201319Z 19008KT 26/13 A2996 RMK A01 T02630128  RH  043%=      5-min Rain = 0
KEN1 201320Z 19008KT 26/13 A2996 RMK A01 T02640127  RH  043%=      5-min Rain = 0
KEN1 201321Z 18010KT 27/13 A2996 RMK A01 T02650127  RH  043%=      5-min Rain = 0
KEN1 201322Z 18010KT 27/13 A2996 RMK A01 T02650127  RH  042%=      5-min Rain = 0
KEN1 201323Z 18009KT 27/13 A2996 RMK A01 T02650127  RH  042%=      5-min Rain = 0
KEN1 201324Z 19011KT 27/13 A2996 RMK A01 T02650128  RH  042%=      5-min Rain = 0
KEN1 201325Z 19012KT 27/13 A2996 RMK A01 T02660127  RH  042%=      5-min Rain = 0
KEN1 201326Z 20010KT 27/13 A2996 RMK A01 T02670127  RH  042%=      5-min Rain = 0
KEN1 201327Z 20013KT 27/13 A2996 RMK A01 T02680128  RH  042%=      5-min Rain = 0
KEN1 201328Z 19011KT 27/13 A2996 RMK A01 T02680127  RH  042%=      5-min Rain = 0
KEN1 201329Z 18011KT 27/13 A2996 RMK A01 T02690128  RH  042%=      5-min Rain = 0
KEN1 201330Z 19011KT 27/13 A2996 RMK A01 T02690128  RH  041%=      5-min Rain = 0
KEN1 201331Z 20010KT 27/13 A2996 RMK A01 T02700128  RH  041%=      5-min Rain = 0
KEN1 201332Z 20010KT 27/13 A2996 RMK A01 T02710128  RH  041%=      5-min Rain = 0
KEN1 201333Z 20013KT 27/13 A2996 RMK A01 T02710128  RH  041%=      5-min Rain = 0
KEN1 201334Z 20011KT 27/13 A2996 RMK A01 T02720129  RH  041%=      5-min Rain = 0
KEN1 201335Z 20011KT 27/13 A2996 RMK A01 T02710128  RH  041%=      5-min Rain = 0
KEN1 201336Z 20011KT 27/13 A2996 RMK A01 T02710128  RH  041%=      5-min Rain = 0
KEN1 201337Z 19010KT 27/13 A2996 RMK A01 T02710129  RH  041%=      5-min Rain = 0
KEN1 201338Z 21012KT 27/13 A2996 RMK A01 T02720129  RH  041%=      5-min Rain = 0
KEN1 201339Z 20010KT 27/13 A2996 RMK A01 T02720128  RH  041%=      5-min Rain = 0
KEN1 201340Z 20010KT 27/13 A2996 RMK A01 T02720128  RH  041%=      5-min Rain = 0
KEN1 201341Z 19011KT 27/13 A2996 RMK A01 T02720128  RH  041%=      5-min Rain = 0
KEN1 201342Z 21012KT 27/13 A2996 RMK A01 T02730129  RH  041%=      5-min Rain = 0
KEN1 201343Z 21011KT 27/13 A2996 RMK A01 T02740129  RH  041%=      5-min Rain = 0
KEN1 201344Z 20009KT 28/13 A2996 RMK A01 T02750130  RH  041%=      5-min Rain = 0
KEN1 201345Z 21011G17KT 28/13 A2996 RMK A01 T02760130  RH  040%=      5-min Rain = 0
KEN1 201346Z 22013KT 28/13 A2996 RMK A01 T02770129  RH  040%=      5-min Rain = 0
KEN1 201347Z 21011KT 28/13 A2996 RMK A01 T02770130  RH  040%=      5-min Rain = 0
KEN1 201348Z 20010KT 28/13 A2996 RMK A01 T02770130  RH  040%=      5-min Rain = 0
KEN1 201349Z 22011KT 28/13 A2996 RMK A01 T02780130  RH  040%=      5-min Rain = 0
KEN1 201350Z 22011KT 28/13 A2996 RMK A01 T02780130  RH  040%=      5-min Rain = 0
KEN1 201351Z 22012KT 28/13 A2996 RMK A01 T02790130  RH  040%=      5-min Rain = 0
KEN1 201352Z 21013KT 28/13 A2996 RMK A01 T02790130  RH  040%=      5-min Rain = 0
KEN1 201353Z 21014KT 28/13 A2996 RMK A01 T02780130  RH  040%=      5-min Rain = 0
KEN1 201354Z 21011KT 28/13 A2996 RMK A01 T02780130  RH  040%=      5-min Rain = 0
KEN1 201355Z 21013G19KT 28/13 A2996 RMK A01 T02790131  RH  040%=      5-min Rain = 0
KEN1 201356Z 21016KT 28/13 A2996 RMK A01 T02800129  RH  040%=      5-min Rain = 0
KEN1 201357Z 21017KT 28/13 A2996 RMK A01 T02790129  RH  040%=      5-min Rain = 0
KEN1 201358Z 21016KT 28/13 A2996 RMK A01 T02790129  RH  040%=      5-min Rain = 0
KEN1 201359Z 22014KT 28/13 A2996 RMK A01 T02790130  RH  040%=      5-min Rain = 0
KEN1 201400Z 21014G19KT 28/13 A2996 RMK A01 T02790130  RH  040%=      5-min Rain = 0
KEN1 201401Z 21019KT 28/13 A2996 RMK A01 T02790129  RH  040%=      5-min Rain = 0
KEN1 201402Z 21018KT 28/13 A2996 RMK A01 T02790129  RH  039%=      5-min Rain = 0
KEN1 201403Z 21015KT 28/13 A2996 RMK A01 T02780129  RH  040%=      5-min Rain = 0
KEN1 201404Z 20016KT 28/13 A2996 RMK A01 T02780129  RH  040%=      5-min Rain = 0
KEN1 201405Z 21016KT 28/13 A2996 RMK A01 T02790130  RH  040%=      5-min Rain = 0
KEN1 201406Z 20012KT 28/13 A2996 RMK A01 T02810131  RH  040%=      5-min Rain = 0
KEN1 201407Z 21014KT 28/13 A2996 RMK A01 T02830132  RH  039%=      5-min Rain = 0
KEN1 201408Z 20015KT 28/13 A2995 RMK A01 T02840131  RH  039%=      5-min Rain = 0
KEN1 201409Z 20016KT 28/13 A2995 RMK A01 T02830131  RH  039%=      5-min Rain = 0
KEN1 201410Z 21018KT 28/13 A2995 RMK A01 T02830131  RH  039%=      5-min Rain = 0
KEN1 201411Z 21019KT 28/13 A2995 RMK A01 T02820130  RH  039%=      5-min Rain = 0
KEN1 201412Z 21019KT 28/13 A2995 RMK A01 T02810130  RH  039%=      5-min Rain = 0
KEN1 201413Z 21019KT 28/13 A2995 RMK A01 T02810130  RH  039%=      5-min Rain = 0
KEN1 201414Z 20017G23KT 28/13 A2995 RMK A01 T02810130  RH  039%=      5-min Rain = 0
KEN1 201415Z 21019KT 28/13 A2995 RMK A01 T02810130  RH  039%=      5-min Rain = 0
KEN1 201416Z 21017KT 28/13 A2995 RMK A01 T02820130  RH  039%=      5-min Rain = 0
KEN1 201417Z 21018KT 28/13 A2996 RMK A01 T02820130  RH  039%=      5-min Rain = 0
KEN1 201418Z 21018KT 28/13 A2995 RMK A01 T02820130  RH  039%=      5-min Rain = 0
KEN1 201419Z 21016G21KT 28/13 A2995 RMK A01 T02830131  RH  039%=      5-min Rain = 0
KEN1 201420Z 21019KT 28/13 A2995 RMK A01 T02830131  RH  039%=      5-min Rain = 0
KEN1 201421Z 21019KT 28/13 A2995 RMK A01 T02830131  RH  039%=      5-min Rain = 0
KEN1 201422Z 20020KT 28/13 A2995 RMK A01 T02830131  RH  039%=      5-min Rain = 0
KEN1 201423Z 20020KT 28/13 A2995 RMK A01 T02840131  RH  039%=      5-min Rain = 0
KEN1 201424Z 20018G23KT 28/13 A2995 RMK A01 T02830131  RH  039%=      5-min Rain = 0
KEN1 201425Z 20021KT 28/13 A2995 RMK A01 T02840131  RH  039%=      5-min Rain = 0
KEN1 201426Z 20019KT 28/13 A2995 RMK A01 T02840131  RH  039%=      5-min Rain = 0
KEN1 201427Z 20015KT 28/13 A2995 RMK A01 T02840132  RH  039%=      5-min Rain = 0
KEN1 201428Z 21018KT 29/13 A2995 RMK A01 T02860131  RH  039%=      5-min Rain = 0
KEN1 201429Z 21017KT 29/13 A2995 RMK A01 T02860132  RH  039%=      5-min Rain = 0
KEN1 201430Z 21018KT 29/13 A2995 RMK A01 T02860132  RH  039%=      5-min Rain = 0
KEN1 201431Z 21016G21KT 29/13 A2995 RMK A01 T02860132  RH  039%=      5-min Rain = 0
KEN1 201432Z 21017KT 29/13 A2995 RMK A01 T02860132  RH  039%=      5-min Rain = 0
KEN1 201433Z 21014KT 29/13 A2995 RMK A01 T02860132  RH  039%=      5-min Rain = 0
KEN1 201434Z 21017KT 29/13 A2995 RMK A01 T02880134  RH  039%=      5-min Rain = 0
KEN1 201435Z 21017KT 29/13 A2995 RMK A01 T02890133  RH  038%=      5-min Rain = 0
KEN1 201436Z 20014KT 29/13 A2995 RMK A01 T02890133  RH  038%=      5-min Rain = 0
KEN1 201437Z 21015G21KT 29/13 A2995 RMK A01 T02900134  RH  038%=      5-min Rain = 0
KEN1 201438Z 21017KT 29/13 A2995 RMK A01 T02910133  RH  038%=      5-min Rain = 0
KEN1 201439Z 20017KT 29/13 A2995 RMK A01 T02920133  RH  038%=      5-min Rain = 0
KEN1 201440Z 20018KT 29/13 A2995 RMK A01 T02920133  RH  038%=      5-min Rain = 0
KEN1 201441Z 20016KT 29/13 A2995 RMK A01 T02910134  RH  038%=      5-min Rain = 0
KEN1 201442Z 20018KT 29/13 A2995 RMK A01 T02910133  RH  038%=      5-min Rain = 0
KEN1 201443Z 20015KT 29/13 A2995 RMK A01 T02920134  RH  038%=      5-min Rain = 0
KEN1 201444Z 20017KT 29/13 A2995 RMK A01 T02940134  RH  037%=      5-min Rain = 0
KEN1 201445Z 20017KT 29/13 A2995 RMK A01 T02940132  RH  037%=      5-min Rain = 0
KEN1 201446Z 20015KT 29/13 A2995 RMK A01 T02930133  RH  037%=      5-min Rain = 0
KEN1 201447Z 19018KT 29/13 A2995 RMK A01 T02940133  RH  037%=      5-min Rain = 0
KEN1 201448Z 20016KT 29/13 A2995 RMK A01 T02940133  RH  037%=      5-min Rain = 0
KEN1 201449Z 20017KT 30/13 A2995 RMK A01 T02950134  RH  037%=      5-min Rain = 0
KEN1 201450Z 21017KT 30/13 A2995 RMK A01 T02960133  RH  037%=      5-min Rain = 0
KEN1 201451Z 21016G21KT 30/13 A2995 RMK A01 T02960134  RH  037%=      5-min Rain = 0
KEN1 201452Z 20016KT 30/14 A2995 RMK A01 T02970135  RH  037%=      5-min Rain = 0
KEN1 201453Z 20017KT 30/13 A2995 RMK A01 T02970133  RH  036%=      5-min Rain = 0
KEN1 201454Z 21018KT 30/13 A2995 RMK A01 T02970133  RH  036%=      5-min Rain = 0
KEN1 201455Z 21017KT 30/13 A2995 RMK A01 T02970133  RH  036%=      5-min Rain = 0
KEN1 201456Z 21013KT 30/13 A2995 RMK A01 T02960134  RH  037%=      5-min Rain = 0
KEN1 201457Z 20015KT 30/14 A2995 RMK A01 T02970135  RH  037%=      5-min Rain = 0
KEN1 201458Z 20015KT 30/13 A2995 RMK A01 T02990134  RH  036%=      5-min Rain = 0
KEN1 201459Z 19015KT 30/13 A2995 RMK A01 T03000134  RH  036%=      5-min Rain = 0
KEN1 201500Z 20016KT 30/13 A2995 RMK A01 T03020134  RH  036%=      5-min Rain = 0
KEN1 201501Z 20016KT 30/13 A2995 RMK A01 T03020134  RH  036%=      5-min Rain = 0
KEN1 201502Z 20015KT 30/14 A2995 RMK A01 T03030135  RH  036%=      5-min Rain = 0
KEN1 201503Z 20016KT 30/14 A2995 RMK A01 T03040135  RH  035%=      5-min Rain = 0
KEN1 201504Z 20017KT 30/14 A2995 RMK A01 T03040135  RH  035%=      5-min Rain = 0
KEN1 201505Z 21015KT 30/13 A2995 RMK A01 T03040134  RH  035%=      5-min Rain = 0
KEN1 201506Z 21016KT 31/13 A2995 RMK A01 T03050134  RH  035%=      5-min Rain = 0
KEN1 201507Z 22016KT 31/13 A2995 RMK A01 T03060134  RH  035%=      5-min Rain = 0
KEN1 201508Z 21016KT 30/13 A2995 RMK A01 T03040133  RH  035%=      5-min Rain = 0
KEN1 201509Z 21016KT 30/14 A2995 RMK A01 T03030135  RH  036%=      5-min Rain = 0
KEN1 201510Z 21017KT 30/13 A2995 RMK A01 T03030134  RH  035%=      5-min Rain = 0
KEN1 201511Z 20016KT 30/13 A2995 RMK A01 T03040134  RH  035%=      5-min Rain = 0
KEN1 201512Z 20015KT 30/13 A2995 RMK A01 T03040134  RH  035%=      5-min Rain = 0
KEN1 201513Z 20013KT 31/13 A2995 RMK A01 T03050134  RH  035%=      5-min Rain = 0
KEN1 201514Z 20016KT 31/14 A2995 RMK A01 T03060135  RH  035%=      5-min Rain = 0
KEN1 201515Z 21016KT 31/14 A2995 RMK A01 T03080135  RH  035%=      5-min Rain = 0
KEN1 201516Z 20016KT 31/14 A2995 RMK A01 T03070135  RH  035%=      5-min Rain = 0
KEN1 201517Z 21015KT 31/14 A2995 RMK A01 T03070135  RH  035%=      5-min Rain = 0
KEN1 201518Z 20011KT 31/14 A2995 RMK A01 T03070135  RH  035%=      5-min Rain = 0
KEN1 201519Z 20014KT 31/14 A2995 RMK A01 T03090137  RH  035%=      5-min Rain = 0
KEN1 201520Z 20016KT 31/14 A2995 RMK A01 T03120135  RH  034%=      5-min Rain = 0
KEN1 201521Z 20014KT 31/14 A2995 RMK A01 T03120135  RH  034%=      5-min Rain = 0
KEN1 201522Z 20015KT 31/13 A2995 RMK A01 T03110134  RH  034%=      5-min Rain = 0
KEN1 201523Z 21015KT 31/14 A2995 RMK A01 T03100135  RH  034%=      5-min Rain = 0
KEN1 201524Z 21015KT 31/14 A2994 RMK A01 T03090136  RH  035%=      5-min Rain = 0
KEN1 201525Z 20013KT 31/14 A2995 RMK A01 T03090136  RH  035%=      5-min Rain = 0
KEN1 201526Z 20014KT 31/14 A2994 RMK A01 T03110137  RH  035%=      5-min Rain = 0
KEN1 201527Z 20013KT 31/14 A2994 RMK A01 T03140137  RH  034%=      5-min Rain = 0
KEN1 201528Z 20016KT 32/14 A2994 RMK A01 T03160136  RH  033%=      5-min Rain = 0
KEN1 201529Z 20016KT 32/14 A2994 RMK A01 T03150136  RH  034%=      5-min Rain = 0
KEN1 201530Z 20016KT 31/14 A2994 RMK A01 T03130136  RH  034%=      5-min Rain = 0
KEN1 201531Z 20014KT 31/14 A2994 RMK A01 T03130136  RH  034%=      5-min Rain = 0
KEN1 201532Z 21014KT 32/14 A2994 RMK A01 T03150138  RH  034%=      5-min Rain = 0
KEN1 201533Z 20016KT 32/14 A2994 RMK A01 T03180137  RH  033%=      5-min Rain = 0
KEN1 201534Z 20017KT 32/14 A2994 RMK A01 T03180136  RH  033%=      5-min Rain = 0
KEN1 201535Z 20015KT 32/14 A2994 RMK A01 T03160135  RH  033%=      5-min Rain = 0
KEN1 201536Z 21012KT 32/14 A2995 RMK A01 T03160136  RH  034%=      5-min Rain = 0
KEN1 201537Z 20014KT 32/14 A2994 RMK A01 T03190137  RH  033%=      5-min Rain = 0
KEN1 201538Z 20014KT 32/14 A2995 RMK A01 T03190136  RH  033%=      5-min Rain = 0
KEN1 201539Z 20015KT 32/14 A2994 RMK A01 T03200138  RH  033%=      5-min Rain = 0
KEN1 201540Z 22013KT 32/14 A2995 RMK A01 T03220136  RH  032%=      5-min Rain = 0
KEN1 201541Z 22015KT 32/13 A2994 RMK A01 T03240133  RH  031%=      5-min Rain = 0
KEN1 201542Z 21014KT 32/14 A2994 RMK A01 T03220136  RH  032%=      5-min Rain = 0
KEN1 201543Z 21013KT 32/14 A2994 RMK A01 T03220136  RH  032%=      5-min Rain = 0
KEN1 201544Z 21013G18KT 32/14 A2994 RMK A01 T03240137  RH  032%=      5-min Rain = 0
KEN1 201545Z 20015KT 33/13 A2994 RMK A01 T03250134  RH  031%=      5-min Rain = 0
KEN1 201546Z 21012KT 32/13 A2994 RMK A01 T03240134  RH  032%=      5-min Rain = 0
KEN1 201547Z 21015KT 33/14 A2994 RMK A01 T03250136  RH  032%=      5-min Rain = 0
KEN1 201548Z 21016KT 33/14 A2994 RMK A01 T03260135  RH  031%=      5-min Rain = 0
KEN1 201549Z 22016KT 32/13 A2994 RMK A01 T03240134  RH  032%=      5-min Rain = 0
KEN1 201550Z 21016KT 32/13 A2994 RMK A01 T03230133  RH  032%=      5-min Rain = 0
KEN1 201551Z 21013KT 32/13 A2994 RMK A01 T03220134  RH  032%=      5-min Rain = 0
KEN1 201552Z 20016KT 32/14 A2994 RMK A01 T03240136  RH  032%=      5-min Rain = 0
KEN1 201553Z 21016KT 33/13 A2994 RMK A01 T03250134  RH  031%=      5-min Rain = 0
KEN1 201554Z 20016KT 33/13 A2994 RMK A01 T03250132  RH  031%=      5-min Rain = 0
KEN1 201555Z 20014KT 32/13 A2994 RMK A01 T03240134  RH  032%=      5-min Rain = 0
KEN1 201556Z 20017KT 32/14 A2994 RMK A01 T03240135  RH  032%=      5-min Rain = 0
KEN1 201557Z 21014KT 33/13 A2994 RMK A01 T03270133  RH  031%=      5-min Rain = 0
KEN1 201558Z 21016KT 33/13 A2994 RMK A01 T03280131  RH  030%=      5-min Rain = 0
KEN1 201559Z 21017KT 33/13 A2994 RMK A01 T03270131  RH  030%=      5-min Rain = 0
KEN1 201600Z 20016KT 33/13 A2994 RMK A01 T03270132  RH  031%=      5-min Rain = 0
KEN1 201601Z 20014KT 33/13 A2994 RMK A01 T03270133  RH  031%=      5-min Rain = 0
KEN1 201602Z 20013KT 33/13 A2994 RMK A01 T03290134  RH  031%=      5-min Rain = 0
KEN1 201603Z 20015KT 33/13 A2994 RMK A01 T03320134  RH  030%=      5-min Rain = 0
KEN1 201604Z 21016KT 33/14 A2994 RMK A01 T03300135  RH  031%=      5-min Rain = 0
KEN1 201605Z 21015KT 33/13 A2994 RMK A01 T03300133  RH  030%=      5-min Rain = 0
KEN1 201606Z 20015KT 33/13 A2994 RMK A01 T03300132  RH  030%=      5-min Rain = 0
KEN1 201607Z 20014KT 33/13 A2994 RMK A01 T03310132  RH  030%=      5-min Rain = 0
KEN1 201608Z 20014KT 33/13 A2994 RMK A01 T03320132  RH  030%=      5-min Rain = 0
KEN1 201609Z 20016KT 34/13 A2994 RMK A01 T03350132  RH  029%=      5-min Rain = 0
KEN1 201610Z 20013KT 34/14 A2994 RMK A01 T03360135  RH  030%=      5-min Rain = 0
KEN1 201611Z 21014KT 34/13 A2994 RMK A01 T03360133  RH  029%=      5-min Rain = 0
KEN1 201612Z 21013KT 34/13 A2994 RMK A01 T03350131  RH  029%=      5-min Rain = 0
KEN1 201613Z 20014KT 33/13 A2994 RMK A01 T03340133  RH  030%=      5-min Rain = 0
KEN1 201614Z 20014KT 33/13 A2994 RMK A01 T03340133  RH  030%=      5-min Rain = 0
KEN1 201615Z 21017KT 33/13 A2994 RMK A01 T03340131  RH  029%=      5-min Rain = 0
KEN1 201616Z 22013KT 33/13 A2994 RMK A01 T03330130  RH  029%=      5-min Rain = 0
KEN1 201617Z 21015KT 34/13 A2994 RMK A01 T03360133  RH  029%=      5-min Rain = 0
KEN1 201618Z 20014KT 34/13 A2994 RMK A01 T03370133  RH  029%=      5-min Rain = 0
KEN1 201619Z 20015KT 34/13 A2994 RMK A01 T03360133  RH  029%=      5-min Rain = 0
KEN1 201620Z 20015KT 34/13 A2994 RMK A01 T03360132  RH  029%=      5-min Rain = 0
KEN1 201621Z 20014KT 34/13 A2994 RMK A01 T03390132  RH  029%=      5-min Rain = 0
KEN1 201622Z 20012KT 34/13 A2994 RMK A01 T03390130  RH  028%=      5-min Rain = 0
KEN1 201623Z 21015KT 34/13 A2994 RMK A01 T03380130  RH  028%=      5-min Rain = 0
KEN1 201624Z 20015KT 34/13 A2994 RMK A01 T03380130  RH  028%=      5-min Rain = 0
KEN1 201625Z 19016KT 34/13 A2994 RMK A01 T03380127  RH  028%=      5-min Rain = 0
KEN1 201626Z 20015KT 34/13 A2994 RMK A01 T03380129  RH  028%=      5-min Rain = 0
KEN1 201627Z 20014KT 34/13 A2994 RMK A01 T03390130  RH  028%=      5-min Rain = 0
KEN1 201628Z 21015KT 34/13 A2994 RMK A01 T03380130  RH  028%=      5-min Rain = 0
KEN1 201629Z 20013KT 34/13 A2994 RMK A01 T03390131  RH  029%=      5-min Rain = 0
KEN1 201630Z 21014KT 34/13 A2994 RMK A01 T03410129  RH  028%=      5-min Rain = 0
KEN1 201631Z 21012KT 34/13 A2994 RMK A01 T03400129  RH  028%=      5-min Rain = 0
KEN1 201632Z 20014KT 34/13 A2994 RMK A01 T03410131  RH  028%=      5-min Rain = 0
KEN1 201633Z 20012KT 34/13 A2994 RMK A01 T03430131  RH  028%=      5-min Rain = 0
KEN1 201634Z 20014KT 35/13 A2994 RMK A01 T03450131  RH  027%=      5-min Rain = 0
KEN1 201635Z 19015KT 35/13 A2994 RMK A01 T03450126  RH  027%=      5-min Rain = 0
KEN1 201636Z 20012KT 34/13 A2994 RMK A01 T03440128  RH  027%=      5-min Rain = 0
KEN1 201637Z 19013KT 35/13 A2994 RMK A01 T03490132  RH  027%=      5-min Rain = 0
KEN1 201638Z 20016KT 35/13 A2994 RMK A01 T03500129  RH  027%=      5-min Rain = 0
KEN1 201639Z 21013KT 35/13 A2994 RMK A01 T03490129  RH  026%=      5-min Rain = 0
KEN1 201640Z 20017KT 35/13 A2994 RMK A01 T03500126  RH  026%=      5-min Rain = 0
KEN1 201641Z 20016KT 35/13 A2994 RMK A01 T03480125  RH  026%=      5-min Rain = 0
KEN1 201642Z 21013KT 35/13 A2994 RMK A01 T03480128  RH  027%=      5-min Rain = 0
KEN1 201643Z 20015KT 35/13 A2994 RMK A01 T03490127  RH  026%=      5-min Rain = 0
KEN1 201644Z 21014G20KT 35/13 A2994 RMK A01 T03480126  RH  026%=      5-min Rain = 0
KEN1 201645Z 20012KT 35/13 A2994 RMK A01 T03510130  RH  026%=      5-min Rain = 0
KEN1 201646Z 20011KT 35/13 A2994 RMK A01 T03540132  RH  026%=      5-min Rain = 0
KEN1 201647Z 19013G18KT 35/13 A2994 RMK A01 T03510131  RH  027%=      5-min Rain = 0
KEN1 201648Z 22013G18KT 35/13 A2994 RMK A01 T03520130  RH  026%=      5-min Rain = 0
KEN1 201649Z 21013KT 35/13 A2994 RMK A01 T03540126  RH  025%=      5-min Rain = 0
KEN1 201650Z 20011KT 35/13 A2994 RMK A01 T03530127  RH  026%=      5-min Rain = 0
KEN1 201651Z 20013KT 36/13 A2994 RMK A01 T03550129  RH  026%=      5-min Rain = 0
KEN1 201652Z 20013KT 36/13 A2994 RMK A01 T03550128  RH  026%=      5-min Rain = 0
KEN1 201653Z 20016KT 35/13 A2994 RMK A01 T03540127  RH  026%=      5-min Rain = 0
KEN1 201654Z 20017KT 35/12 A2994 RMK A01 T03530124  RH  025%=      5-min Rain = 0
KEN1 201655Z 20016KT 35/12 A2994 RMK A01 T03520121  RH  025%=      5-min Rain = 0
KEN1 201656Z 20014KT 35/13 A2994 RMK A01 T03500125  RH  026%=      5-min Rain = 0
KEN1 201657Z 20014KT 35/13 A2994 RMK A01 T03490125  RH  026%=      5-min Rain = 0
KEN1 201658Z 20013KT 35/13 A2994 RMK A01 T03480126  RH  026%=      5-min Rain = 0
KEN1 201659Z 20013KT 35/13 A2994 RMK A01 T03510130  RH  026%=      5-min Rain = 0
KEN1 201700Z 21016KT 36/13 A2994 RMK A01 T03550128  RH  026%=      5-min Rain = 0
KEN1 201701Z 21015KT 36/12 A2994 RMK A01 T03550123  RH  025%=      5-min Rain = 0
KEN1 201702Z 21015KT 35/12 A2994 RMK A01 T03540123  RH  025%=      5-min Rain = 0
KEN1 201703Z 21011KT 35/12 A2994 RMK A01 T03540122  RH  025%=      5-min Rain = 0
KEN1 201704Z 22012KT 35/13 A2994 RMK A01 T03520125  RH  025%=      5-min Rain = 0
KEN1 201705Z 21011KT 35/13 A2994 RMK A01 T03530129  RH  026%=      5-min Rain = 0
KEN1 201706Z 20015KT 35/13 A2994 RMK A01 T03540126  RH  025%=      5-min Rain = 0
KEN1 201707Z 21013KT 35/12 A2994 RMK A01 T03540124  RH  025%=      5-min Rain = 0
KEN1 201708Z 20012KT 36/13 A2994 RMK A01 T03550125  RH  025%=      5-min Rain = 0
KEN1 201709Z 19010G15KT 36/13 A2994 RMK A01 T03560125  RH  025%=      5-min Rain = 0
KEN1 201710Z 19012KT 35/13 A2994 RMK A01 T03540125  RH  025%=      5-min Rain = 0
KEN1 201711Z 21013KT 36/12 A2994 RMK A01 T03560124  RH  025%=      5-min Rain = 0
KEN1 201712Z 21013KT 36/12 A2994 RMK A01 T03580123  RH  024%=      5-min Rain = 0
KEN1 201713Z 20014KT 36/12 A2994 RMK A01 T03600120  RH  024%=      5-min Rain = 0
KEN1 201714Z 20013KT 36/12 A2994 RMK A01 T03590118  RH  023%=      5-min Rain = 0
KEN1 201715Z 20013KT 36/12 A2994 RMK A01 T03560120  RH  024%=      5-min Rain = 0
KEN1 201716Z 22011KT 36/12 A2994 RMK A01 T03550122  RH  025%=      5-min Rain = 0
KEN1 201717Z 22014KT 35/12 A2994 RMK A01 T03540123  RH  025%=      5-min Rain = 0
KEN1 201718Z 21012KT 35/12 A2994 RMK A01 T03540123  RH  025%=      5-min Rain = 0
KEN1 201719Z 20012KT 36/12 A2994 RMK A01 T03560124  RH  025%=      5-min Rain = 0
KEN1 201720Z 20015KT 36/13 A2993 RMK A01 T03610126  RH  024%=      5-min Rain = 0
KEN1 201721Z 20013KT 36/12 A2993 RMK A01 T03630123  RH  024%=      5-min Rain = 0
KEN1 201722Z 20012KT 36/12 A2993 RMK A01 T03630119  RH  023%=      5-min Rain = 0
KEN1 201723Z 20013KT 36/12 A2993 RMK A01 T03620122  RH  024%=      5-min Rain = 0
KEN1 201724Z 21013G18KT 36/12 A2993 RMK A01 T03640124  RH  024%=      5-min Rain = 0
KEN1 201725Z 20010KT 36/13 A2993 RMK A01 T03630125  RH  024%=      5-min Rain = 0
KEN1 201726Z 20012KT 36/12 A2993 RMK A01 T03610124  RH  024%=      5-min Rain = 0
KEN1 201727Z 20016KT 36/12 A2993 RMK A01 T03620124  RH  024%=      5-min Rain = 0
KEN1 201728Z 20013KT 36/12 A2993 RMK A01 T03620120  RH  023%=      5-min Rain = 0
KEN1 201729Z 20009KT 36/12 A2993 RMK A01 T03610121  RH  024%=      5-min Rain = 0
KEN1 201730Z 21010KT 36/12 A2993 RMK A01 T03630123  RH  024%=      5-min Rain = 0
KEN1 201731Z 22010KT 37/12 A2993 RMK A01 T03650123  RH  023%=      5-min Rain = 0
KEN1 201732Z 21013KT 37/12 A2993 RMK A01 T03660123  RH  023%=      5-min Rain = 0
KEN1 201733Z 20012KT 37/13 A2993 RMK A01 T03660125  RH  024%=      5-min Rain = 0
KEN1 201734Z 21014KT 37/12 A2993 RMK A01 T03650123  RH  023%=      5-min Rain = 0
KEN1 201735Z 21012KT 36/12 A2993 RMK A01 T03640120  RH  023%=      5-min Rain = 0
KEN1 201736Z 20012KT 36/12 A2993 RMK A01 T03620119  RH  023%=      5-min Rain = 0
KEN1 201737Z 20016KT 36/12 A2993 RMK A01 T03610117  RH  023%=      5-min Rain = 0
KEN1 201738Z 22016KT 36/12 A2993 RMK A01 T03640118  RH  023%=      5-min Rain = 0
KEN1 201739Z 21015KT 37/12 A2993 RMK A01 T03670119  RH  022%=      5-min Rain = 0
KEN1 201740Z 22012KT 37/12 A2993 RMK A01 T03680119  RH  022%=      5-min Rain = 0
KEN1 201741Z 23010KT 37/12 A2993 RMK A01 T03670115  RH  022%=      5-min Rain = 0
KEN1 201742Z 22010G17KT 37/12 A2993 RMK A01 T03670118  RH  022%=      5-min Rain = 0
KEN1 201743Z 21016KT 37/12 A2993 RMK A01 T03710119  RH  022%=      5-min Rain = 0
KEN1 201744Z 21016KT 37/12 A2993 RMK A01 T03710116  RH  022%=      5-min Rain = 0
KEN1 201745Z 22016KT 37/12 A2993 RMK A01 T03670115  RH  022%=      5-min Rain = 0
KEN1 201746Z 23016KT 37/11 A2993 RMK A01 T03660114  RH  022%=      5-min Rain = 0
KEN1 201747Z 22011KT 37/11 A2993 RMK A01 T03650114  RH  022%=      5-min Rain = 0
KEN1 201748Z 22010KT 37/11 A2993 RMK A01 T03660114  RH  022%=      5-min Rain = 0
KEN1 201749Z 20011KT 37/12 A2993 RMK A01 T03660115  RH  022%=      5-min Rain = 0
KEN1 201750Z 19013KT 37/12 A2993 RMK A01 T03690117  RH  022%=      5-min Rain = 0
KEN1 201751Z 20015KT 37/11 A2993 RMK A01 T03700114  RH  021%=      5-min Rain = 0
KEN1 201752Z 19013KT 37/12 A2993 RMK A01 T03700115  RH  022%=      5-min Rain = 0
KEN1 201753Z 20013KT 37/12 A2993 RMK A01 T03720117  RH  022%=      5-min Rain = 0
KEN1 201754Z 22012KT 38/12 A2993 RMK A01 T03760118  RH  021%=      5-min Rain = 0
KEN1 201755Z 23012KT 37/12 A2993 RMK A01 T03740116  RH  021%=      5-min Rain = 0
KEN1 201756Z 20012KT 37/12 A2993 RMK A01 T03730117  RH  022%=      5-min Rain = 0
KEN1 201757Z 20011KT 37/12 A2993 RMK A01 T03700115  RH  022%=      5-min Rain = 0
KEN1 201758Z 20014G19KT 37/12 A2993 RMK A01 T03690118  RH  022%=      5-min Rain = 0
KEN1 201759Z 21016KT 37/12 A2993 RMK A01 T03730117  RH  022%=      5-min Rain = 0
KEN1 201800Z 21011KT 37/12 A2993 RMK A01 T03720116  RH  021%=      5-min Rain = 0
KEN1 201801Z 21013KT 37/12 A2993 RMK A01 T03720116  RH  021%=      5-min Rain = 0
KEN1 201802Z 21010KT 37/11 A2993 RMK A01 T03720113  RH  021%=      5-min Rain = 0
KEN1 201803Z 22011KT 37/11 A2993 RMK A01 T03710111  RH  021%=      5-min Rain = 0
KEN1 201804Z 22009G15KT 37/11 A2993 RMK A01 T03710109  RH  021%=      5-min Rain = 0
KEN1 201805Z 22010KT 37/11 A2992 RMK A01 T03710113  RH  021%=      5-min Rain = 0
KEN1 201806Z 21015KT 37/12 A2992 RMK A01 T03730117  RH  022%=      5-min Rain = 0
KEN1 201807Z 20012KT 38/12 A2992 RMK A01 T03750115  RH  021%=      5-min Rain = 0
KEN1 201808Z 21011KT 37/12 A2992 RMK A01 T03730116  RH  022%=      5-min Rain = 0
KEN1 201809Z 21014KT 38/11 A2992 RMK A01 T03750114  RH  021%=      5-min Rain = 0
KEN1 201810Z 20013KT 38/11 A2992 RMK A01 T03760113  RH  021%=      5-min Rain = 0
KEN1 201811Z 21010KT 38/11 A2992 RMK A01 T03760113  RH  021%=      5-min Rain = 0
KEN1 201812Z 21011KT 38/12 A2992 RMK A01 T03800117  RH  021%=      5-min Rain = 0
KEN1 201813Z 21017KT 38/11 A2992 RMK A01 T03810114  RH  020%=      5-min Rain = 0
KEN1 201814Z 20015KT 38/11 A2992 RMK A01 T03780113  RH  020%=      5-min Rain = 0
KEN1 201815Z 20013G18KT 38/11 A2992 RMK A01 T03770112  RH  020%=      5-min Rain = 0
KEN1 201816Z 20013KT 38/11 A2992 RMK A01 T03770111  RH  020%=      5-min Rain = 0
KEN1 201817Z 20011KT 38/11 A2992 RMK A01 T03760111  RH  020%=      5-min Rain = 0
KEN1 201818Z 20013KT 38/11 A2992 RMK A01 T03760108  RH  020%=      5-min Rain = 0
KEN1 201819Z 22016KT 38/11 A2992 RMK A01 T03760111  RH  020%=      5-min Rain = 0
KEN1 201820Z 22012G17KT 38/11 A2992 RMK A01 T03770111  RH  020%=      5-min Rain = 0
KEN1 201821Z 22011G16KT 38/11 A2992 RMK A01 T03780112  RH  020%=      5-min Rain = 0
KEN1 201822Z 21011KT 38/12 A2992 RMK A01 T03820115  RH  020%=      5-min Rain = 0
KEN1 201823Z 19012KT 39/11 A2992 RMK A01 T03860114  RH  020%=      5-min Rain = 0
KEN1 201824Z 18014G19KT 39/11 A2992 RMK A01 T03870111  RH  019%=      5-min Rain = 0
KEN1 201825Z 18016KT 38/11 A2992 RMK A01 T03830108  RH  019%=      5-min Rain = 0
KEN1 201826Z 19015KT 38/11 A2992 RMK A01 T03810108  RH  019%=      5-min Rain = 0
KEN1 201827Z 20014KT 38/11 A2992 RMK A01 T03830110  RH  019%=      5-min Rain = 0
KEN1 201828Z 21015KT 39/11 A2992 RMK A01 T03880109  RH  019%=      5-min Rain = 0
KEN1 201829Z 19009KT 38/11 A2992 RMK A01 T03840106  RH  019%=      5-min Rain = 0
KEN1 201830Z 22014G20KT 38/11 A2992 RMK A01 T03800108  RH  020%=      5-min Rain = 0
KEN1 201831Z 21017KT 38/11 A2991 RMK A01 T03800107  RH  019%=      5-min Rain = 0
KEN1 201832Z 21013KT 38/11 A2992 RMK A01 T03800105  RH  019%=      5-min Rain = 0
KEN1 201833Z 19007KT 38/10 A2992 RMK A01 T03780103  RH  019%=      5-min Rain = 0
KEN1 201834Z 19011G18KT 38/11 A2991 RMK A01 T03790108  RH  020%=      5-min Rain = 0
KEN1 201835Z 20015KT 39/11 A2991 RMK A01 T03860109  RH  019%=      5-min Rain = 0
KEN1 201836Z 19017KT 39/10 A2991 RMK A01 T03880102  RH  018%=      5-min Rain = 0
KEN1 201837Z 18011KT 39/10 A2991 RMK A01 T03850102  RH  018%=      5-min Rain = 0
KEN1 201838Z 20012KT 38/10 A2991 RMK A01 T03830102  RH  018%=      5-min Rain = 0
KEN1 201839Z 19011KT 38/10 A2991 RMK A01 T03840098  RH  018%=      5-min Rain = 0
KEN1 201840Z 20010KT 38/10 A2991 RMK A01 T03830100  RH  018%=      5-min Rain = 0
KEN1 201841Z 19011G18KT 38/11 A2991 RMK A01 T03830106  RH  019%=      5-min Rain = 0
KEN1 201842Z 19016G21KT 38/11 A2991 RMK A01 T03830106  RH  019%=      5-min Rain = 0
KEN1 201843Z 22012KT 38/10 A2991 RMK A01 T03840100  RH  018%=      5-min Rain = 0
KEN1 201844Z 21016KT 39/10 A2991 RMK A01 T03850103  RH  018%=      5-min Rain = 0
KEN1 201845Z 21013KT 39/10 A2991 RMK A01 T03850102  RH  018%=      5-min Rain = 0
KEN1 201846Z 22010G15KT 38/10 A2991 RMK A01 T03840103  RH  018%=      5-min Rain = 0
KEN1 201847Z 20014KT 38/11 A2991 RMK A01 T03840106  RH  019%=      5-min Rain = 0
KEN1 201848Z 17015KT 39/10 A2991 RMK A01 T03900103  RH  018%=      5-min Rain = 0
KEN1 201849Z 18011KT 39/10 A2991 RMK A01 T03880100  RH  018%=      5-min Rain = 0
KEN1 201850Z 19011G16KT 39/10 A2991 RMK A01 T03880102  RH  018%=      5-min Rain = 0
KEN1 201851Z 20015KT 39/10 A2991 RMK A01 T03900102  RH  018%=      5-min Rain = 0
KEN1 201852Z 18013G19KT 39/10 A2991 RMK A01 T03890099  RH  017%=      5-min Rain = 0
KEN1 201853Z 17009KT 39/10 A2991 RMK A01 T03860095  RH  017%=      5-min Rain = 0
KEN1 201854Z 19013KT 39/10 A2991 RMK A01 T03870099  RH  018%=      5-min Rain = 0
KEN1 201855Z 19013KT 39/10 A2991 RMK A01 T03870097  RH  017%=      5-min Rain = 0
KEN1 201856Z 19010G15KT 38/10 A2991 RMK A01 T03840097  RH  018%=      5-min Rain = 0
KEN1 201857Z 18013KT 39/10 A2991 RMK A01 T03850095  RH  017%=      5-min Rain = 0
KEN1 201858Z 17010KT 39/10 A2991 RMK A01 T03860095  RH  017%=      5-min Rain = 0
KEN1 201859Z 18009KT 39/10 A2991 RMK A01 T03860096  RH  017%=      5-min Rain = 0
KEN1 201900Z 18012KT 39/10 A2991 RMK A01 T03870098  RH  018%=      5-min Rain = 0
KEN1 201901Z 19010KT 39/10 A2991 RMK A01 T03870099  RH  018%=      5-min Rain = 0
KEN1 201902Z 20011KT 39/10 A2991 RMK A01 T03880101  RH  018%=      5-min Rain = 0
KEN1 201903Z 20009G14KT 39/10 A2991 RMK A01 T03930099  RH  017%=      5-min Rain = 0
KEN1 201904Z 20010KT 40/10 A2991 RMK A01 T03970100  RH  017%=      5-min Rain = 0
KEN1 201905Z 20015KT 40/10 A299 RMK A01 T03960098  RH  017%=      5-min Rain = 0
KEN1 201906Z 19014KT 40/09 A299 RMK A01 T03950094  RH  016%=      5-min Rain = 0
KEN1 201907Z 19010KT 39/09 A299 RMK A01 T03900091  RH  017%=      5-min Rain = 0
KEN1 201908Z 20012KT 39/10 A299 RMK A01 T03900096  RH  017%=      5-min Rain = 0
KEN1 201909Z 20014KT 39/10 A299 RMK A01 T03920096  RH  017%=      5-min Rain = 0
KEN1 201910Z 17013KT 39/09 A299 RMK A01 T03910090  RH  016%=      5-min Rain = 0
KEN1 201911Z 18011KT 39/09 A299 RMK A01 T03910087  RH  016%=      5-min Rain = 0
KEN1 201912Z 18012KT 39/09 A299 RMK A01 T03920088  RH  016%=      5-min Rain = 0
KEN1 201913Z 18012KT 39/09 A299 RMK A01 T03930089  RH  016%=      5-min Rain = 0
KEN1 201914Z 20015KT 39/09 A299 RMK A01 T03930094  RH  017%=      5-min Rain = 0
KEN1 201915Z 21016KT 39/09 A299 RMK A01 T03940093  RH  016%=      5-min Rain = 0
KEN1 201916Z 18017KT 40/09 A299 RMK A01 T03950093  RH  016%=      5-min Rain = 0
KEN1 201917Z 18014KT 39/09 A299 RMK A01 T03930091  RH  016%=      5-min Rain = 0
KEN1 201918Z 19014KT 39/09 A299 RMK A01 T03900090  RH  016%=      5-min Rain = 0
KEN1 201919Z 17010KT 39/09 A299 RMK A01 T03870088  RH  016%=      5-min Rain = 0
KEN1 201920Z 22010G17KT 39/09 A299 RMK A01 T03880088  RH  016%=      5-min Rain = 0
KEN1 201921Z 22012KT 39/09 A299 RMK A01 T03890087  RH  016%=      5-min Rain = 0
KEN1 201922Z 19015KT 39/09 A299 RMK A01 T03910090  RH  016%=      5-min Rain = 0
KEN1 201923Z 20014KT 40/09 A299 RMK A01 T03950086  RH  016%=      5-min Rain = 0
KEN1 201924Z 20011KT 39/08 A299 RMK A01 T03920083  RH  016%=      5-min Rain = 0
KEN1 201925Z 22011KT 39/09 A299 RMK A01 T03890087  RH  016%=      5-min Rain = 0
KEN1 201926Z 20008KT 39/08 A299 RMK A01 T03880084  RH  016%=      5-min Rain = 0
KEN1 201927Z 19013KT 39/09 A299 RMK A01 T03890088  RH  016%=      5-min Rain = 0
KEN1 201928Z 21011G17KT 40/09 A299 RMK A01 T03950085  RH  015%=      5-min Rain = 0
KEN1 201929Z 22008KT 39/09 A299 RMK A01 T03940087  RH  016%=      5-min Rain = 0
KEN1 201930Z 20009KT 39/09 A2989 RMK A01 T03920088  RH  016%=      5-min Rain = 0
KEN1 201931Z 21011KT 39/09 A2989 RMK A01 T03910091  RH  016%=      5-min Rain = 0
KEN1 201932Z 21015KT 39/10 A2989 RMK A01 T03930095  RH  017%=      5-min Rain = 0
KEN1 201933Z 18011KT 39/10 A2989 RMK A01 T03920095  RH  017%=      5-min Rain = 0
KEN1 201934Z 17014KT 39/09 A2989 RMK A01 T03920090  RH  016%=      5-min Rain = 0
KEN1 201935Z 17015KT 39/09 A2989 RMK A01 T03930089  RH  016%=      5-min Rain = 0
KEN1 201936Z 17010G15KT 39/09 A2989 RMK A01 T03930088  RH  016%=      5-min Rain = 0
KEN1 201937Z 20014G20KT 39/09 A2989 RMK A01 T03920091  RH  016%=      5-min Rain = 0
KEN1 201938Z 19017KT 40/09 A2989 RMK A01 T03960092  RH  016%=      5-min Rain = 0
KEN1 201939Z 20014KT 40/09 A2989 RMK A01 T03980085  RH  015%=      5-min Rain = 0
KEN1 201940Z 21010KT 39/09 A2989 RMK A01 T03940086  RH  016%=      5-min Rain = 0
KEN1 201941Z 18012KT 39/09 A2989 RMK A01 T03900090  RH  016%=      5-min Rain = 0
KEN1 201942Z 17013KT 39/09 A2989 RMK A01 T03910086  RH  016%=      5-min Rain = 0
KEN1 201943Z 20012G17KT 39/09 A2989 RMK A01 T03920088  RH  016%=      5-min Rain = 0
KEN1 201944Z 20012KT 39/09 A2989 RMK A01 T03930089  RH  016%=      5-min Rain = 0
KEN1 201945Z 20008KT 39/09 A2989 RMK A01 T03920085  RH  016%=      5-min Rain = 0
KEN1 201946Z 19012KT 39/09 A2989 RMK A01 T03890086  RH  016%=      5-min Rain = 0
KEN1 201947Z 21012KT 39/09 A2989 RMK A01 T03930088  RH  016%=      5-min Rain = 0
KEN1 201948Z 21010KT 39/09 A2989 RMK A01 T03920086  RH  016%=      5-min Rain = 0
KEN1 201949Z 19015KT 40/08 A2989 RMK A01 T03960084  RH  015%=      5-min Rain = 0
KEN1 201950Z 17015KT 40/08 A2989 RMK A01 T03950079  RH  015%=      5-min Rain = 0
KEN1 201951Z 18013KT 40/08 A2989 RMK A01 T03950080  RH  015%=      5-min Rain = 0
KEN1 201952Z 17014KT 40/08 A2989 RMK A01 T03980084  RH  015%=      5-min Rain = 0
KEN1 201953Z 18013KT 40/08 A2989 RMK A01 T03970079  RH  015%=      5-min Rain = 0
KEN1 201954Z 21005G11KT 40/08 A2989 RMK A01 T03950080  RH  015%=      5-min Rain = 0
KEN1 201955Z 18011G17KT 39/08 A2989 RMK A01 T03930080  RH  015%=      5-min Rain = 0
KEN1 201956Z 19017KT 39/08 A2988 RMK A01 T03940077  RH  015%=      5-min Rain = 0
KEN1 201957Z 18014KT 40/08 A2989 RMK A01 T03950075  RH  014%=      5-min Rain = 0
KEN1 201958Z 18012KT 40/08 A2989 RMK A01 T03960079  RH  015%=      5-min Rain = 0
KEN1 201959Z 17011KT 40/08 A2989 RMK A01 T03970080  RH  015%=      5-min Rain = 0
KEN1 202000Z 17015KT 40/07 A2989 RMK A01 T03950074  RH  014%=      5-min Rain = 0
KEN1 202001Z 17011KT 39/08 A2989 RMK A01 T03940079  RH  015%=      5-min Rain = 0
KEN1 202002Z 17013KT 40/08 A2989 RMK A01 T03950079  RH  015%=      5-min Rain = 0
KEN1 202003Z 18015KT 40/08 A2989 RMK A01 T03990076  RH  014%=      5-min Rain = 0
KEN1 202004Z 18013KT 40/08 A2989 RMK A01 T03970077  RH  014%=      5-min Rain = 0
KEN1 202005Z 18017KT 39/08 A2988 RMK A01 T03940078  RH  015%=      5-min Rain = 0
KEN1 202006Z 19016KT 40/08 A2989 RMK A01 T03950081  RH  015%=      5-min Rain = 0
KEN1 202007Z 17015KT 40/08 A2989 RMK A01 T03960079  RH  015%=      5-min Rain = 0
KEN1 202008Z 18014KT 40/08 A2988 RMK A01 T03960077  RH  015%=      5-min Rain = 0
KEN1 202009Z 19011G16KT 40/08 A2989 RMK A01 T03970076  RH  014%=      5-min Rain = 0
KEN1 202010Z 17010KT 40/08 A2988 RMK A01 T03960079  RH  015%=      5-min Rain = 0
KEN1 202011Z 16007KT 40/08 A2989 RMK A01 T03980075  RH  014%=      5-min Rain = 0
KEN1 202012Z 19009KT 40/08 A2988 RMK A01 T03980079  RH  015%=      5-min Rain = 0
KEN1 202013Z 19009KT 40/09 A2988 RMK A01 T03980085  RH  015%=      5-min Rain = 0
KEN1 202014Z 18012G18KT 40/08 A2988 RMK A01 T04000082  RH  015%=      5-min Rain = 0
KEN1 202015Z 19014KT 40/08 A2988 RMK A01 T03990082  RH  015%=      5-min Rain = 0
KEN1 202016Z 18014KT 40/08 A2988 RMK A01 T03980082  RH  015%=      5-min Rain = 0
KEN1 202017Z 17013G18KT 40/08 A2988 RMK A01 T03990081  RH  015%=      5-min Rain = 0
KEN1 202018Z 17008KT 40/08 A2988 RMK A01 T03960078  RH  015%=      5-min Rain = 0
KEN1 202019Z 19012KT 39/08 A2988 RMK A01 T03940081  RH  015%=      5-min Rain = 0
KEN1 202020Z 20013KT 40/08 A2988 RMK A01 T03950080  RH  015%=      5-min Rain = 0
KEN1 202021Z 21010KT 40/08 A2988 RMK A01 T03970078  RH  015%=      5-min Rain = 0
KEN1 202022Z 18008KT 40/08 A2988 RMK A01 T03950078  RH  015%=      5-min Rain = 0
KEN1 202023Z 19011KT 40/08 A2988 RMK A01 T03950080  RH  015%=      5-min Rain = 0
KEN1 202024Z 18011KT 40/08 A2988 RMK A01 T03970079  RH  015%=      5-min Rain = 0
KEN1 202025Z 18009KT 40/08 A2988 RMK A01 T03960078  RH  015%=      5-min Rain = 0
KEN1 202026Z 20015KT 40/08 A2988 RMK A01 T04000081  RH  015%=      5-min Rain = 0
KEN1 202027Z 20013G18KT 40/08 A2988 RMK A01 T04020079  RH  014%=      5-min Rain = 0
KEN1 202028Z 19009KT 40/08 A2988 RMK A01 T04010078  RH  014%=      5-min Rain = 0
KEN1 202029Z 21015KT 40/08 A2988 RMK A01 T03980077  RH  014%=      5-min Rain = 0
KEN1 202030Z 19013KT 40/08 A2988 RMK A01 T03990076  RH  014%=      5-min Rain = 0
KEN1 202031Z 20012KT 40/08 A2988 RMK A01 T04030075  RH  014%=      5-min Rain = 0
KEN1 202032Z 20010KT 40/07 A2988 RMK A01 T04000072  RH  014%=      5-min Rain = 0
KEN1 202033Z 20007KT 40/07 A2988 RMK A01 T03980074  RH  014%=      5-min Rain = 0
KEN1 202034Z 18011KT 40/08 A2988 RMK A01 T03990077  RH  014%=      5-min Rain = 0
KEN1 202035Z 18015KT 40/08 A2988 RMK A01 T04010078  RH  014%=      5-min Rain = 0
KEN1 202036Z 19015KT 40/08 A2988 RMK A01 T04020084  RH  015%=      5-min Rain = 0
KEN1 202037Z 21011KT 40/09 A2988 RMK A01 T04040085  RH  015%=      5-min Rain = 0
KEN1 202038Z 23007KT 40/08 A2988 RMK A01 T04000083  RH  015%=      5-min Rain = 0
KEN1 202039Z 21011G19KT 40/09 A2988 RMK A01 T03990086  RH  015%=      5-min Rain = 0
KEN1 202040Z 20015KT 40/09 A2988 RMK A01 T04040085  RH  015%=      5-min Rain = 0
KEN1 202041Z 23011G18KT 41/08 A2988 RMK A01 T04050079  RH  014%=      5-min Rain = 0
KEN1 202042Z 24006KT 40/08 A2988 RMK A01 T04000079  RH  014%=      5-min Rain = 0
KEN1 202043Z 18007G13KT 40/08 A2988 RMK A01 T04000077  RH  014%=      5-min Rain = 0
KEN1 202044Z 22015KT 40/08 A2988 RMK A01 T04000078  RH  014%=      5-min Rain = 0
KEN1 202045Z 23009KT 40/07 A2988 RMK A01 T04010074  RH  014%=      5-min Rain = 0
KEN1 202046Z 20009KT 40/08 A2988 RMK A01 T04000075  RH  014%=      5-min Rain = 0
KEN1 202047Z 20017KT 40/08 A2988 RMK A01 T04000077  RH  014%=      5-min Rain = 0
KEN1 202048Z 19013G18KT 40/07 A2988 RMK A01 T04000073  RH  014%=      5-min Rain = 0
KEN1 202049Z 20008KT 40/07 A2988 RMK A01 T03990072  RH  014%=      5-min Rain = 0
KEN1 202050Z 21004KT 40/07 A2988 RMK A01 T03990069  RH  014%=      5-min Rain = 0
KEN1 202051Z 21004KT 40/07 A2988 RMK A01 T03980070  RH  014%=      5-min Rain = 0
KEN1 202052Z 21011G16KT 40/08 A2988 RMK A01 T03980077  RH  014%=      5-min Rain = 0
KEN1 202053Z 21015KT 40/08 A2988 RMK A01 T04020078  RH  014%=      5-min Rain = 0
KEN1 202054Z 19015KT 40/08 A2988 RMK A01 T04030077  RH  014%=      5-min Rain = 0
KEN1 202055Z 20013KT 40/08 A2988 RMK A01 T04040078  RH  014%=      5-min Rain = 0
KEN1 202056Z 18016KT 41/08 A2988 RMK A01 T04070078  RH  014%=      5-min Rain = 0
KEN1 202057Z 18013KT 40/07 A2988 RMK A01 T04040073  RH  014%=      5-min Rain = 0
KEN1 202058Z 19009KT 40/07 A2988 RMK A01 T04000072  RH  014%=      5-min Rain = 0
KEN1 202059Z 20008KT 40/07 A2988 RMK A01 T03980074  RH  014%=      5-min Rain = 0
KEN1 202100Z 20007KT 40/07 A2988 RMK A01 T04000070  RH  014%=      5-min Rain = 0
KEN1 202101Z 18005KT 40/07 A2988 RMK A01 T04000070  RH  014%=      5-min Rain = 0
KEN1 202102Z 18005KT 40/07 A2988 RMK A01 T03980070  RH  014%=      5-min Rain = 0
KEN1 202103Z 23008KT 40/07 A2988 RMK A01 T03980073  RH  014%=      5-min Rain = 0
KEN1 202104Z 23010G15KT 40/08 A2987 RMK A01 T03990077  RH  014%=      5-min Rain = 0
KEN1 202105Z 23013KT 40/08 A2987 RMK A01 T04030082  RH  014%=      5-min Rain = 0
KEN1 202106Z 23014KT 40/08 A2987 RMK A01 T04040080  RH  014%=      5-min Rain = 0
KEN1 202107Z 22012KT 40/08 A2987 RMK A01 T04000078  RH  014%=      5-min Rain = 0
KEN1 202108Z 20013G19KT 40/08 A2987 RMK A01 T03990083  RH  015%=      5-min Rain = 0
KEN1 202109Z 20015KT 41/08 A2987 RMK A01 T04050080  RH  014%=      5-min Rain = 0
KEN1 202110Z 21014KT 41/08 A2987 RMK A01 T04090078  RH  014%=      5-min Rain = 0
KEN1 202111Z 21013KT 41/08 A2987 RMK A01 T04060077  RH  014%=      5-min Rain = 0
KEN1 202112Z 20012KT 40/08 A2987 RMK A01 T04040076  RH  014%=      5-min Rain = 0
KEN1 202113Z 21013KT 40/08 A2987 RMK A01 T04010077  RH  014%=      5-min Rain = 0
KEN1 202114Z 21010KT 40/08 A2987 RMK A01 T04020077  RH  014%=      5-min Rain = 0
KEN1 202115Z 21014G21KT 40/08 A2987 RMK A01 T04040080  RH  014%=      5-min Rain = 0
KEN1 202116Z 21019KT 41/08 A2987 RMK A01 T04090082  RH  014%=      5-min Rain = 0
KEN1 202117Z 19013KT 41/08 A2987 RMK A01 T04070078  RH  014%=      5-min Rain = 0
KEN1 202118Z 20010KT 40/08 A2987 RMK A01 T04010075  RH  014%=      5-min Rain = 0
KEN1 202119Z 20014KT 40/08 A2987 RMK A01 T04040077  RH  014%=      5-min Rain = 0
KEN1 202120Z 20007G13KT 41/07 A2987 RMK A01 T04050072  RH  013%=      5-min Rain = 0
KEN1 202121Z 21008KT 40/07 A2987 RMK A01 T04000072  RH  014%=      5-min Rain = 0
KEN1 202122Z 22007G13KT 40/07 A2987 RMK A01 T04000074  RH  014%=      5-min Rain = 0
KEN1 202123Z 20011KT 40/08 A2987 RMK A01 T03990076  RH  014%=      5-min Rain = 0
KEN1 202124Z 20014G19KT 40/08 A2987 RMK A01 T04010078  RH  014%=      5-min Rain = 0
KEN1 202125Z 19011KT 40/08 A2987 RMK A01 T04040077  RH  014%=      5-min Rain = 0
KEN1 202126Z 18010KT 40/08 A2987 RMK A01 T04020076  RH  014%=      5-min Rain = 0
KEN1 202127Z 18004KT 40/07 A2987 RMK A01 T03970070  RH  014%=      5-min Rain = 0
KEN1 202128Z 18001KT 39/07 A2987 RMK A01 T03940071  RH  014%=      5-min Rain = 0
KEN1 202129Z 14002KT 40/08 A2987 RMK A01 T03970075  RH  014%=      5-min Rain = 0
KEN1 202130Z 14002KT 40/07 A2987 RMK A01 T04000074  RH  014%=      5-min Rain = 0
KEN1 202131Z 20005KT 40/07 A2987 RMK A01 T04010074  RH  014%=      5-min Rain = 0
KEN1 202132Z 22009G16KT 40/08 A2987 RMK A01 T04020077  RH  014%=      5-min Rain = 0
KEN1 202133Z 22012G17KT 41/08 A2987 RMK A01 T04050076  RH  014%=      5-min Rain = 0
KEN1 202134Z 22010KT 41/08 A2987 RMK A01 T04050076  RH  014%=      5-min Rain = 0
KEN1 202135Z 21011KT 41/08 A2987 RMK A01 T04050076  RH  014%=      5-min Rain = 0
KEN1 202136Z 20010KT 40/07 A2987 RMK A01 T04040073  RH  014%=      5-min Rain = 0
KEN1 202137Z 21010KT 40/07 A2987 RMK A01 T04020071  RH  014%=      5-min Rain = 0
KEN1 202138Z 21008KT 40/07 A2987 RMK A01 T04020071  RH  013%=      5-min Rain = 0
KEN1 202139Z 20008KT 40/07 A2987 RMK A01 T04020068  RH  013%=      5-min Rain = 0
KEN1 202140Z 18005KT 40/07 A2986 RMK A01 T03980067  RH  013%=      5-min Rain = 0
KEN1 202141Z 17004KT 40/07 A2986 RMK A01 T03960067  RH  014%=      5-min Rain = 0
KEN1 202142Z 20005KT 40/07 A2987 RMK A01 T03970069  RH  014%=      5-min Rain = 0
KEN1 202143Z 19012KT 40/08 A2987 RMK A01 T03990076  RH  014%=      5-min Rain = 0
KEN1 202144Z 19010KT 40/07 A2987 RMK A01 T04030074  RH  014%=      5-min Rain = 0
KEN1 202145Z 19009KT 40/07 A2987 RMK A01 T04040073  RH  014%=      5-min Rain = 0
KEN1 202146Z 19009KT 40/07 A2986 RMK A01 T04020071  RH  014%=      5-min Rain = 0
KEN1 202147Z 18005KT 40/07 A2986 RMK A01 T03990070  RH  014%=      5-min Rain = 0
KEN1 202148Z 20003KT 40/07 A2986 RMK A01 T03980073  RH  014%=      5-min Rain = 0
KEN1 202149Z 19006KT 40/08 A2986 RMK A01 T03990077  RH  014%=      5-min Rain = 0
KEN1 202150Z 17005G10KT 40/08 A2986 RMK A01 T04030079  RH  014%=      5-min Rain = 0
KEN1 202151Z 23013G19KT 41/08 A2986 RMK A01 T04060080  RH  014%=      5-min Rain = 0
KEN1 202152Z 24014KT 41/08 A2986 RMK A01 T04070078  RH  014%=      5-min Rain = 0
KEN1 202153Z 26012KT 40/07 A2986 RMK A01 T04040073  RH  014%=      5-min Rain = 0
KEN1 202154Z 24010KT 40/07 A2986 RMK A01 T04020073  RH  014%=      5-min Rain = 0
KEN1 202155Z 22014KT 40/08 A2986 RMK A01 T04030076  RH  014%=      5-min Rain = 0
KEN1 202156Z 21013KT 41/08 A2986 RMK A01 T04050075  RH  014%=      5-min Rain = 0
KEN1 202157Z 20014KT 41/07 A2986 RMK A01 T04050074  RH  014%=      5-min Rain = 0
KEN1 202158Z 20011G18KT 41/07 A2986 RMK A01 T04050073  RH  013%=      5-min Rain = 0
KEN1 202159Z 20007G15KT 40/07 A2986 RMK A01 T04030073  RH  014%=      5-min Rain = 0
KEN1 202200Z 22015KT 40/08 A2986 RMK A01 T04030076  RH  014%=      5-min Rain = 0
KEN1 202201Z 24014KT 41/08 A2986 RMK A01 T04050075  RH  014%=      5-min Rain = 0
KEN1 202202Z 23013KT 41/08 A2986 RMK A01 T04060075  RH  014%=      5-min Rain = 0
KEN1 202203Z 22008KT 41/07 A2986 RMK A01 T04050074  RH  014%=      5-min Rain = 0
KEN1 202204Z 20009KT 40/07 A2986 RMK A01 T04020073  RH  014%=      5-min Rain = 0
KEN1 202205Z 20009KT 40/07 A2986 RMK A01 T04020074  RH  014%=      5-min Rain = 0
KEN1 202206Z 20010G15KT 40/07 A2986 RMK A01 T04030074  RH  014%=      5-min Rain = 0
KEN1 202207Z 21011G16KT 40/08 A2986 RMK A01 T04030076  RH  014%=      5-min Rain = 0
KEN1 202208Z 20013G18KT 40/08 A2986 RMK A01 T04030078  RH  014%=      5-min Rain = 0
KEN1 202209Z 21015KT 41/08 A2986 RMK A01 T04050077  RH  014%=      5-min Rain = 0
KEN1 202210Z 21014G19KT 41/08 A2986 RMK A01 T04050078  RH  014%=      5-min Rain = 0
KEN1 202211Z 19018KT 41/08 A2986 RMK A01 T04080079  RH  014%=      5-min Rain = 0
KEN1 202212Z 20013KT 41/08 A2986 RMK A01 T04090080  RH  014%=      5-min Rain = 0
KEN1 202213Z 20011KT 41/08 A2986 RMK A01 T04100078  RH  014%=      5-min Rain = 0
KEN1 202214Z 20011KT 41/08 A2986 RMK A01 T04100081  RH  014%=      5-min Rain = 0
KEN1 202215Z 18013KT 41/08 A2986 RMK A01 T04110078  RH  014%=      5-min Rain = 0
KEN1 202216Z 22009KT 41/08 A2986 RMK A01 T04110076  RH  013%=      5-min Rain = 0
KEN1 202217Z 25009KT 41/07 A2986 RMK A01 T04110071  RH  013%=      5-min Rain = 0
KEN1 202218Z 25008KT 41/07 A2986 RMK A01 T04070069  RH  013%=      5-min Rain = 0
KEN1 202219Z 24007KT 40/07 A2986 RMK A01 T04040069  RH  013%=      5-min Rain = 0
KEN1 202220Z 23009KT 40/07 A2986 RMK A01 T04030070  RH  013%=      5-min Rain = 0
KEN1 202221Z 22010G15KT 40/07 A2986 RMK A01 T04040070  RH  013%=      5-min Rain = 0
KEN1 202222Z 22011KT 40/07 A2986 RMK A01 T04040071  RH  013%=      5-min Rain = 0
KEN1 202223Z 21009KT 41/07 A2986 RMK A01 T04050071  RH  013%=      5-min Rain = 0
KEN1 202224Z 21007KT 40/07 A2985 RMK A01 T04040070  RH  013%=      5-min Rain = 0
KEN1 202225Z 21015KT 40/07 A2985 RMK A01 T04040073  RH  014%=      5-min Rain = 0
KEN1 202226Z 20015KT 41/07 A2985 RMK A01 T04080073  RH  013%=      5-min Rain = 0
KEN1 202227Z 20017KT 41/07 A2985 RMK A01 T04080070  RH  013%=      5-min Rain = 0
KEN1 202228Z 20015KT 41/07 A2985 RMK A01 T04070070  RH  013%=      5-min Rain = 0
KEN1 202229Z 20015KT 41/07 A2985 RMK A01 T04060069  RH  013%=      5-min Rain = 0
KEN1 202230Z 19014G19KT 41/07 A2985 RMK A01 T04050069  RH  013%=      5-min Rain = 0
KEN1 202231Z 20010KT 40/07 A2985 RMK A01 T04020068  RH  013%=      5-min Rain = 0
KEN1 202232Z 22011KT 40/07 A2985 RMK A01 T04020071  RH  014%=      5-min Rain = 0
KEN1 202233Z 21010KT 40/07 A2985 RMK A01 T04040071  RH  013%=      5-min Rain = 0
KEN1 202234Z 19007KT 40/07 A2985 RMK A01 T04030068  RH  013%=      5-min Rain = 0
KEN1 202235Z 20012KT 40/07 A2985 RMK A01 T04010070  RH  014%=      5-min Rain = 0
KEN1 202236Z 20013KT 40/07 A2985 RMK A01 T04020072  RH  014%=      5-min Rain = 0
KEN1 202237Z 21010KT 40/07 A2985 RMK A01 T04030072  RH  014%=      5-min Rain = 0
KEN1 202238Z 20008KT 40/07 A2985 RMK A01 T04030073  RH  014%=      5-min Rain = 0
KEN1 202239Z 16008KT 40/07 A2985 RMK A01 T04020074  RH  014%=      5-min Rain = 0
KEN1 202240Z 17012G17KT 41/08 A2985 RMK A01 T04050075  RH  014%=      5-min Rain = 0
KEN1 202241Z 19015KT 41/07 A2985 RMK A01 T04090074  RH  013%=      5-min Rain = 0
KEN1 202242Z 19013KT 41/07 A2985 RMK A01 T04070071  RH  013%=      5-min Rain = 0
KEN1 202243Z 18011KT 40/07 A2985 RMK A01 T04040071  RH  013%=      5-min Rain = 0
KEN1 202244Z 16012KT 40/07 A2985 RMK A01 T04020071  RH  014%=      5-min Rain = 0
KEN1 202245Z 16010KT 40/07 A2985 RMK A01 T04030073  RH  014%=      5-min Rain = 0
KEN1 202246Z 17010KT 41/07 A2985 RMK A01 T04060072  RH  013%=      5-min Rain = 0
KEN1 202247Z 18016KT 41/07 A2984 RMK A01 T04060073  RH  013%=      5-min Rain = 0
KEN1 202248Z 19016KT 41/07 A2985 RMK A01 T04070073  RH  013%=      5-min Rain = 0
KEN1 202249Z 20017KT 41/07 A2985 RMK A01 T04060072  RH  013%=      5-min Rain = 0
KEN1 202250Z 20011KT 40/07 A2985 RMK A01 T04040071  RH  013%=      5-min Rain = 0
KEN1 202251Z 20014KT 41/07 A2984 RMK A01 T04050074  RH  014%=      5-min Rain = 0
KEN1 202252Z 20014KT 41/07 A2985 RMK A01 T04070072  RH  013%=      5-min Rain = 0
KEN1 202253Z 20012KT 41/07 A2985 RMK A01 T04070072  RH  013%=      5-min Rain = 0
KEN1 202254Z 20012KT 41/07 A2984 RMK A01 T04060072  RH  013%=      5-min Rain = 0
KEN1 202255Z 20012KT 40/07 A2984 RMK A01 T04040071  RH  013%=      5-min Rain = 0
KEN1 202256Z 18010KT 40/07 A2984 RMK A01 T04040073  RH  014%=      5-min Rain = 0
KEN1 202257Z 17012KT 41/07 A2984 RMK A01 T04050072  RH  013%=      5-min Rain = 0
KEN1 202258Z 18012KT 41/07 A2984 RMK A01 T04050070  RH  013%=      5-min Rain = 0
KEN1 202259Z 20015KT 41/07 A2984 RMK A01 T04050070  RH  013%=      5-min Rain = 0
KEN1 202300Z 21012G17KT 41/07 A2984 RMK A01 T04050070  RH  013%=      5-min Rain = 0
KEN1 202301Z 23009KT 40/07 A2984 RMK A01 T04030069  RH  013%=      5-min Rain = 0
KEN1 202302Z 23011KT 40/07 A2984 RMK A01 T04010070  RH  013%=      5-min Rain = 0
KEN1 202303Z 22010KT 40/07 A2984 RMK A01 T04040072  RH  013%=      5-min Rain = 0
KEN1 202304Z 20013KT 41/07 A2984 RMK A01 T04060072  RH  013%=      5-min Rain = 0
KEN1 202305Z 23011KT 41/07 A2984 RMK A01 T04070072  RH  013%=      5-min Rain = 0
KEN1 202306Z 21011KT 41/07 A2984 RMK A01 T04080074  RH  013%=      5-min Rain = 0
KEN1 202307Z 21014KT 41/07 A2984 RMK A01 T04100072  RH  013%=      5-min Rain = 0
KEN1 202308Z 21017KT 41/07 A2984 RMK A01 T04070070  RH  013%=      5-min Rain = 0
KEN1 202309Z 22015KT 40/07 A2984 RMK A01 T04040068  RH  013%=      5-min Rain = 0
KEN1 202310Z 22013KT 40/07 A2984 RMK A01 T04030068  RH  013%=      5-min Rain = 0
KEN1 202311Z 20015KT 40/07 A2983 RMK A01 T04020068  RH  013%=      5-min Rain = 0
KEN1 202312Z 21014KT 40/07 A2984 RMK A01 T04030068  RH  013%=      5-min Rain = 0
KEN1 202313Z 22012KT 40/07 A2984 RMK A01 T04030069  RH  013%=      5-min Rain = 0
KEN1 202314Z 21011KT 40/07 A2984 RMK A01 T04020069  RH  013%=      5-min Rain = 0
KEN1 202315Z 20011KT 40/07 A2984 RMK A01 T04010068  RH  013%=      5-min Rain = 0
KEN1 202316Z 19012KT 40/07 A2983 RMK A01 T04020069  RH  013%=      5-min Rain = 0
KEN1 202317Z 17014KT 40/07 A2983 RMK A01 T04030068  RH  013%=      5-min Rain = 0
KEN1 202318Z 18015KT 40/07 A2983 RMK A01 T04040068  RH  013%=      5-min Rain = 0
KEN1 202319Z 17012KT 40/07 A2984 RMK A01 T04040068  RH  013%=      5-min Rain = 0
KEN1 202320Z 17012KT 40/07 A2983 RMK A01 T04040068  RH  013%=      5-min Rain = 0
KEN1 202321Z 17013KT 40/07 A2983 RMK A01 T04030066  RH  013%=      5-min Rain = 0
KEN1 202322Z 17012KT 40/07 A2983 RMK A01 T04010065  RH  013%=      5-min Rain = 0
KEN1 202323Z 17012KT 40/06 A2983 RMK A01 T04000064  RH  013%=      5-min Rain = 0
KEN1 202324Z 16012KT 40/07 A2983 RMK A01 T04000065  RH  013%=      5-min Rain = 0
KEN1 202325Z 17011KT 40/07 A2983 RMK A01 T04010065  RH  013%=      5-min Rain = 0
KEN1 202326Z 18011KT 40/07 A2983 RMK A01 T04030065  RH  013%=      5-min Rain = 0
KEN1 202327Z 18010KT 40/07 A2983 RMK A01 T04020066  RH  013%=      5-min Rain = 0
KEN1 202328Z 17011KT 40/07 A2983 RMK A01 T04020066  RH  013%=      5-min Rain = 0
KEN1 202329Z 17013KT 40/07 A2983 RMK A01 T04010065  RH  013%=      5-min Rain = 0
KEN1 202330Z 17014KT 40/06 A2983 RMK A01 T04010064  RH  013%=      5-min Rain = 0
KEN1 202331Z 19014KT 40/07 A2983 RMK A01 T04020065  RH  013%=      5-min Rain = 0
KEN1 202332Z 18011KT 40/07 A2983 RMK A01 T04040068  RH  013%=      5-min Rain = 0
KEN1 202333Z 18010KT 41/07 A2983 RMK A01 T04060066  RH  013%=      5-min Rain = 0
KEN1 202334Z 17009KT 40/06 A2983 RMK A01 T04040064  RH  013%=      5-min Rain = 0
KEN1 202335Z 18008KT 40/06 A2983 RMK A01 T04010064  RH  013%=      5-min Rain = 0
KEN1 202336Z 17009KT 40/07 A2983 RMK A01 T04010065  RH  013%=      5-min Rain = 0
KEN1 202337Z 17013G19KT 40/07 A2983 RMK A01 T04040066  RH  013%=      5-min Rain = 0
KEN1 202338Z 19015KT 41/07 A2983 RMK A01 T04050067  RH  013%=      5-min Rain = 0
KEN1 202339Z 19014KT 41/07 A2983 RMK A01 T04050065  RH  013%=      5-min Rain = 0
KEN1 202340Z 20011KT 40/06 A2983 RMK A01 T04010064  RH  013%=      5-min Rain = 0
KEN1 202341Z 20010KT 40/07 A2983 RMK A01 T04000066  RH  013%=      5-min Rain = 0
KEN1 202342Z 17012KT 40/07 A2983 RMK A01 T04000065  RH  013%=      5-min Rain = 0
KEN1 202343Z 17011KT 40/06 A2983 RMK A01 T04000063  RH  013%=      5-min Rain = 0
KEN1 202344Z 18008KT 40/06 A2983 RMK A01 T04000063  RH  013%=      5-min Rain = 0
KEN1 202345Z 19012KT 40/06 A2983 RMK A01 T03990064  RH  013%=      5-min Rain = 0
KEN1 202346Z 17012G19KT 40/07 A2983 RMK A01 T04000065  RH  013%=      5-min Rain = 0
KEN1 202347Z 18015G20KT 40/06 A2983 RMK A01 T04020064  RH  013%=      5-min Rain = 0
KEN1 202348Z 18016KT 40/06 A2983 RMK A01 T04010064  RH  013%=      5-min Rain = 0
KEN1 202349Z 18015KT 40/07 A2983 RMK A01 T04000065  RH  013%=      5-min Rain = 0
KEN1 202350Z 19015KT 40/07 A2983 RMK A01 T04000066  RH  013%=      5-min Rain = 0
KEN1 202351Z 18016KT 40/07 A2983 RMK A01 T04010066  RH  013%=      5-min Rain = 0
KEN1 202352Z 19012G18KT 40/07 A2983 RMK A01 T04010065  RH  013%=      5-min Rain = 0
KEN1 202353Z 17012KT 40/07 A2983 RMK A01 T04010066  RH  013%=      5-min Rain = 0
KEN1 202354Z 16014KT 40/07 A2983 RMK A01 T04020065  RH  013%=      5-min Rain = 0
KEN1 202355Z 17013KT 40/06 A2983 RMK A01 T04020064  RH  013%=      5-min Rain = 0
KEN1 202356Z 19011KT 40/06 A2983 RMK A01 T04000064  RH  013%=      5-min Rain = 0
KEN1 202357Z 19012KT 40/06 A2983 RMK A01 T03990064  RH  013%=      5-min Rain = 0
KEN1 202358Z 20011KT 40/07 A2983 RMK A01 T03990066  RH  013%=      5-min Rain = 0
KEN1 202359Z 19013KT 40/07 A2983 RMK A01 T04010066  RH  013%=      5-min Rain = 0
KEN1 210000Z 18012KT 40/07 A2983 RMK A01 T04010067  RH  013%=      5-min Rain = 0
KEN1 210001Z 18011KT 40/07 A2983 RMK A01 T04010068  RH  013%=      5-min Rain = 0
KEN1 210002Z 18012KT 40/07 A2983 RMK A01 T04020066  RH  013%=      5-min Rain = 0
KEN1 210003Z 18012KT 40/07 A2983 RMK A01 T04010065  RH  013%=      5-min Rain = 0
KEN1 210004Z 17009KT 40/06 A2983 RMK A01 T03980063  RH  013%=      5-min Rain = 0
KEN1 210005Z 18009KT 40/06 A2983 RMK A01 T03960064  RH  013%=      5-min Rain = 0
KEN1 210006Z 18011KT 40/06 A2983 RMK A01 T03960064  RH  013%=      5-min Rain = 0
KEN1 210007Z 18011KT 40/06 A2983 RMK A01 T03960064  RH  013%=      5-min Rain = 0
KEN1 210008Z 18010KT 40/06 A2983 RMK A01 T03970064  RH  013%=      5-min Rain = 0
KEN1 210009Z 19009KT 40/06 A2983 RMK A01 T03960063  RH  013%=      5-min Rain = 0
KEN1 210010Z 19011KT 40/07 A2983 RMK A01 T03970065  RH  013%=      5-min Rain = 0
KEN1 210011Z 18015KT 40/07 A2983 RMK A01 T03980066  RH  013%=      5-min Rain = 0
KEN1 210012Z 18013KT 40/07 A2983 RMK A01 T03980065  RH  013%=      5-min Rain = 0
KEN1 210013Z 19013KT 40/07 A2983 RMK A01 T03970065  RH  013%=      5-min Rain = 0
KEN1 210014Z 18011KT 40/06 A2983 RMK A01 T03970064  RH  013%=      5-min Rain = 0
KEN1 210015Z 18012KT 40/07 A2983 RMK A01 T03970065  RH  013%=      5-min Rain = 0
KEN1 210016Z 20011KT 40/07 A2983 RMK A01 T03970066  RH  013%=      5-min Rain = 0
KEN1 210017Z 19013KT 40/07 A2983 RMK A01 T03980067  RH  013%=      5-min Rain = 0
KEN1 210018Z 19012KT 40/07 A2983 RMK A01 T03990066  RH  013%=      5-min Rain = 0
KEN1 210019Z 18012KT 40/07 A2983 RMK A01 T03980067  RH  013%=      5-min Rain = 0
KEN1 210020Z 18013KT 40/07 A2983 RMK A01 T03990066  RH  013%=      5-min Rain = 0
KEN1 210021Z 18013KT 40/06 A2983 RMK A01 T03980064  RH  013%=      5-min Rain = 0
KEN1 210022Z 19011KT 40/06 A2983 RMK A01 T03970064  RH  013%=      5-min Rain = 0
KEN1 210023Z 19010KT 40/07 A2983 RMK A01 T03960066  RH  013%=      5-min Rain = 0
KEN1 210024Z 18012KT 40/07 A2983 RMK A01 T03970065  RH  013%=      5-min Rain = 0
KEN1 210025Z 17012KT 40/06 A2983 RMK A01 T03960064  RH  013%=      5-min Rain = 0
KEN1 210026Z 17013KT 40/06 A2983 RMK A01 T03960064  RH  013%=      5-min Rain = 0
KEN1 210027Z 16014KT 40/06 A2983 RMK A01 T03960062  RH  013%=      5-min Rain = 0
KEN1 210028Z 16012KT 40/06 A2983 RMK A01 T03950062  RH  013%=      5-min Rain = 0
KEN1 210029Z 17010KT 40/06 A2983 RMK A01 T03950063  RH  013%=      5-min Rain = 0
KEN1 210030Z 18011KT 40/06 A2983 RMK A01 T03950064  RH  013%=      5-min Rain = 0
KEN1 210031Z 19013KT 40/07 A2983 RMK A01 T03960066  RH  013%=      5-min Rain = 0
KEN1 210032Z 19011KT 40/07 A2983 RMK A01 T03960065  RH  013%=      5-min Rain = 0
KEN1 210033Z 19012KT 40/06 A2983 RMK A01 T03950064  RH  013%=      5-min Rain = 0
KEN1 210034Z 18013KT 39/06 A2983 RMK A01 T03940064  RH  013%=      5-min Rain = 0
KEN1 210035Z 18015KT 39/06 A2983 RMK A01 T03940063  RH  013%=      5-min Rain = 0
KEN1 210036Z 18012KT 39/06 A2983 RMK A01 T03930062  RH  013%=      5-min Rain = 0
KEN1 210037Z 18011KT 39/06 A2983 RMK A01 T03940063  RH  013%=      5-min Rain = 0
KEN1 210038Z 18010KT 39/06 A2983 RMK A01 T03940064  RH  013%=      5-min Rain = 0
KEN1 210039Z 17011KT 39/06 A2983 RMK A01 T03930063  RH  013%=      5-min Rain = 0
KEN1 210040Z 17010KT 39/06 A2983 RMK A01 T03930061  RH  013%=      5-min Rain = 0
KEN1 210041Z 17011KT 39/06 A2983 RMK A01 T03930061  RH  013%=      5-min Rain = 0
KEN1 210042Z 17012KT 39/06 A2983 RMK A01 T03930060  RH  013%=      5-min Rain = 0
KEN1 210043Z 18012KT 39/06 A2983 RMK A01 T03920060  RH  013%=      5-min Rain = 0
KEN1 210044Z 18014KT 39/06 A2983 RMK A01 T03920062  RH  013%=      5-min Rain = 0
KEN1 210045Z 19012KT 39/06 A2983 RMK A01 T03920061  RH  013%=      5-min Rain = 0
KEN1 210046Z 19012KT 39/06 A2983 RMK A01 T03910061  RH  013%=      5-min Rain = 0
KEN1 210047Z 18011KT 39/06 A2984 RMK A01 T03910062  RH  013%=      5-min Rain = 0
KEN1 210048Z 18010KT 39/06 A2984 RMK A01 T03910062  RH  013%=      5-min Rain = 0
KEN1 210049Z 19010KT 39/06 A2984 RMK A01 T03910064  RH  014%=      5-min Rain = 0
KEN1 210050Z 19012KT 39/07 A2984 RMK A01 T03900065  RH  014%=      5-min Rain = 0
KEN1 210051Z 18013KT 39/06 A2984 RMK A01 T03900063  RH  014%=      5-min Rain = 0
KEN1 210052Z 18012KT 39/06 A2984 RMK A01 T03890063  RH  014%=      5-min Rain = 0
KEN1 210053Z 18011KT 39/06 A2984 RMK A01 T03870062  RH  014%=      5-min Rain = 0
KEN1 210054Z 19009KT 39/06 A2984 RMK A01 T03850063  RH  014%=      5-min Rain = 0
KEN1 210055Z 17012KT 39/06 A2984 RMK A01 T03850064  RH  014%=      5-min Rain = 0
KEN1 210056Z 17012KT 39/06 A2984 RMK A01 T03850063  RH  014%=      5-min Rain = 0
KEN1 210057Z 17011KT 39/06 A2984 RMK A01 T03860062  RH  014%=      5-min Rain = 0
KEN1 210058Z 18011KT 39/06 A2984 RMK A01 T03860061  RH  014%=      5-min Rain = 0
KEN1 210059Z 18011KT 39/06 A2984 RMK A01 T03860061  RH  014%=      5-min Rain = 0
KEN1 210100Z 18012KT 39/06 A2984 RMK A01 T03860061  RH  014%=      5-min Rain = 0
KEN1 210101Z 17010KT 39/06 A2984 RMK A01 T03860060  RH  014%=      5-min Rain = 0
KEN1 210102Z 17012KT 39/06 A2984 RMK A01 T03870061  RH  014%=      5-min Rain = 0
KEN1 210103Z 17011KT 39/06 A2984 RMK A01 T03870061  RH  014%=      5-min Rain = 0
KEN1 210104Z 18010KT 39/06 A2984 RMK A01 T03860061  RH  014%=      5-min Rain = 0
KEN1 210105Z 17010KT 39/06 A2984 RMK A01 T03860062  RH  014%=      5-min Rain = 0
KEN1 210106Z 17009KT 39/06 A2984 RMK A01 T03850062  RH  014%=      5-min Rain = 0
KEN1 210107Z 17012KT 39/06 A2984 RMK A01 T03850062  RH  014%=      5-min Rain = 0
KEN1 210108Z 17010KT 39/06 A2984 RMK A01 T03850061  RH  014%=      5-min Rain = 0
KEN1 210109Z 17010KT 38/06 A2984 RMK A01 T03840062  RH  014%=      5-min Rain = 0
KEN1 210110Z 17010KT 38/06 A2984 RMK A01 T03840062  RH  014%=      5-min Rain = 0
KEN1 210111Z 17011KT 38/06 A2984 RMK A01 T03830060  RH  014%=      5-min Rain = 0
KEN1 210112Z 17011KT 38/06 A2984 RMK A01 T03830060  RH  014%=      5-min Rain = 0
KEN1 210113Z 17011KT 38/06 A2984 RMK A01 T03830060  RH  014%=      5-min Rain = 0
KEN1 210114Z 17012KT 38/06 A2984 RMK A01 T03830061  RH  014%=      5-min Rain = 0
KEN1 210115Z 18011KT 38/06 A2984 RMK A01 T03820061  RH  014%=      5-min Rain = 0
KEN1 210116Z 18011KT 38/06 A2984 RMK A01 T03820062  RH  014%=      5-min Rain = 0
KEN1 210117Z 17009KT 38/06 A2984 RMK A01 T03810062  RH  014%=      5-min Rain = 0
KEN1 210118Z 17009KT 38/06 A2984 RMK A01 T03810064  RH  014%=      5-min Rain = 0
KEN1 210119Z 18008KT 38/07 A2984 RMK A01 T03800065  RH  015%=      5-min Rain = 0
KEN1 210120Z 17009KT 38/07 A2984 RMK A01 T03790065  RH  015%=      5-min Rain = 0
KEN1 210121Z 17009KT 38/07 A2984 RMK A01 T03780065  RH  015%=      5-min Rain = 0
KEN1 210122Z 17010KT 38/07 A2984 RMK A01 T03770065  RH  015%=      5-min Rain = 0
KEN1 210123Z 17010KT 38/06 A2984 RMK A01 T03770064  RH  015%=      5-min Rain = 0
KEN1 210124Z 17009KT 38/06 A2984 RMK A01 T03760064  RH  015%=      5-min Rain = 0
KEN1 210125Z 17009KT 37/07 A2984 RMK A01 T03740065  RH  015%=      5-min Rain = 0
KEN1 210126Z 17009KT 37/07 A2984 RMK A01 T03730065  RH  015%=      5-min Rain = 0
KEN1 210127Z 17009KT 37/06 A2984 RMK A01 T03720064  RH  015%=      5-min Rain = 0
KEN1 210128Z 17009KT 37/07 A2984 RMK A01 T03710065  RH  015%=      5-min Rain = 0
KEN1 210129Z 17010KT 37/06 A2984 RMK A01 T03690064  RH  015%=      5-min Rain = 0
KEN1 210130Z 17010KT 37/06 A2984 RMK A01 T03690064  RH  015%=      5-min Rain = 0
KEN1 210131Z 17010KT 37/06 A2984 RMK A01 T03680064  RH  015%=      5-min Rain = 0
KEN1 210132Z 17009KT 37/07 A2984 RMK A01 T03670065  RH  016%=      5-min Rain = 0
KEN1 210133Z 17009KT 37/06 A2984 RMK A01 T03660064  RH  016%=      5-min Rain = 0
KEN1 210134Z 17009KT 37/07 A2984 RMK A01 T03650065  RH  016%=      5-min Rain = 0
KEN1 210135Z 17009KT 37/07 A2984 RMK A01 T03650065  RH  016%=      5-min Rain = 0
KEN1 210136Z 17009KT 36/07 A2984 RMK A01 T03630065  RH  016%=      5-min Rain = 0
KEN1 210137Z 17009KT 36/07 A2984 RMK A01 T03620065  RH  016%=      5-min Rain = 0
KEN1 210138Z 17008KT 36/07 A2983 RMK A01 T03610065  RH  016%=      5-min Rain = 0
KEN1 210139Z 16008KT 36/07 A2984 RMK A01 T03610065  RH  016%=      5-min Rain = 0
KEN1 210140Z 16008KT 36/07 A2984 RMK A01 T03600065  RH  016%=      5-min Rain = 0
KEN1 210141Z 16008KT 36/07 A2984 RMK A01 T03580066  RH  017%=      5-min Rain = 0
KEN1 210142Z 16008KT 36/07 A2984 RMK A01 T03570066  RH  017%=      5-min Rain = 0
KEN1 210143Z 16008KT 36/07 A2984 RMK A01 T03550065  RH  017%=      5-min Rain = 0
KEN1 210144Z 16008KT 36/07 A2984 RMK A01 T03550065  RH  017%=      5-min Rain = 0
KEN1 210145Z 16008KT 35/07 A2984 RMK A01 T03530066  RH  017%=      5-min Rain = 0
KEN1 210146Z 16008KT 35/07 A2984 RMK A01 T03520066  RH  017%=      5-min Rain = 0
KEN1 210147Z 16008KT 35/07 A2984 RMK A01 T03510066  RH  017%=      5-min Rain = 0
KEN1 210148Z 15008KT 35/07 A2984 RMK A01 T03510067  RH  017%=      5-min Rain = 0
KEN1 210149Z 14009KT 35/07 A2984 RMK A01 T03500066  RH  017%=      5-min Rain = 0
KEN1 210150Z 13009KT 35/07 A2984 RMK A01 T03490066  RH  018%=      5-min Rain = 0
KEN1 210151Z 13010KT 35/07 A2984 RMK A01 T03460067  RH  018%=      5-min Rain = 0
KEN1 210152Z 13011KT 34/07 A2984 RMK A01 T03430067  RH  018%=      5-min Rain = 0
KEN1 210153Z 13013KT 34/07 A2984 RMK A01 T03420073  RH  019%=      5-min Rain = 0
KEN1 210154Z 14016KT 34/09 A2984 RMK A01 T03430090  RH  021%=      5-min Rain = 0
KEN1 210155Z 15018G23KT 35/10 A2984 RMK A01 T03450100  RH  022%=      5-min Rain = 0
KEN1 210156Z 15016KT 35/10 A2984 RMK A01 T03480102  RH  022%=      5-min Rain = 0
KEN1 210157Z 15017KT 35/11 A2984 RMK A01 T03480108  RH  023%=      5-min Rain = 0
KEN1 210158Z 15016KT 35/12 A2984 RMK A01 T03480115  RH  024%=      5-min Rain = 0
KEN1 210159Z 14014KT 35/12 A2984 RMK A01 T03480116  RH  024%=      5-min Rain = 0
KEN1 210200Z 14014KT 35/12 A2984 RMK A01 T03490117  RH  025%=      5-min Rain = 0
KEN1 210201Z 15014KT 35/12 A2984 RMK A01 T03470116  RH  025%=      5-min Rain = 0
KEN1 210202Z 14014KT 35/12 A2984 RMK A01 T03460117  RH  025%=      5-min Rain = 0
KEN1 210203Z 14014KT 35/12 A2984 RMK A01 T03460117  RH  025%=      5-min Rain = 0
KEN1 210204Z 15015KT 35/12 A2984 RMK A01 T03450119  RH  025%=      5-min Rain = 0
KEN1 210205Z 15015KT 35/12 A2984 RMK A01 T03450119  RH  025%=      5-min Rain = 0
KEN1 210206Z 15015KT 35/12 A2984 RMK A01 T03450120  RH  026%=      5-min Rain = 0
KEN1 210207Z 14014G19KT 34/12 A2984 RMK A01 T03440119  RH  026%=      5-min Rain = 0
KEN1 210208Z 14015KT 34/12 A2984 RMK A01 T03430119  RH  026%=      5-min Rain = 0
KEN1 210209Z 14015KT 34/12 A2984 RMK A01 T03420119  RH  026%=      5-min Rain = 0
KEN1 210210Z 14015G22KT 34/12 A2984 RMK A01 T03420119  RH  026%=      5-min Rain = 0
KEN1 210211Z 14016KT 34/12 A2984 RMK A01 T03420119  RH  026%=      5-min Rain = 0
KEN1 210212Z 14015KT 34/12 A2984 RMK A01 T03410120  RH  026%=      5-min Rain = 0
KEN1 210213Z 15014KT 34/12 A2984 RMK A01 T03400120  RH  026%=      5-min Rain = 0
KEN1 210214Z 15015KT 34/12 A2984 RMK A01 T03400120  RH  026%=      5-min Rain = 0
KEN1 210215Z 15014KT 34/12 A2984 RMK A01 T03390120  RH  026%=      5-min Rain = 0
KEN1 210216Z 15016G21KT 34/12 A2984 RMK A01 T03390120  RH  027%=      5-min Rain = 0
KEN1 210217Z 15018KT 34/12 A2984 RMK A01 T03390121  RH  027%=      5-min Rain = 0
KEN1 210218Z 14016KT 34/12 A2985 RMK A01 T03400121  RH  027%=      5-min Rain = 0
KEN1 210219Z 14014KT 34/12 A2984 RMK A01 T03390121  RH  027%=      5-min Rain = 0
KEN1 210220Z 14014KT 34/12 A2985 RMK A01 T03390121  RH  027%=      5-min Rain = 0
KEN1 210221Z 15015KT 34/12 A2985 RMK A01 T03380121  RH  027%=      5-min Rain = 0
KEN1 210222Z 15014KT 34/12 A2985 RMK A01 T03380122  RH  027%=      5-min Rain = 0
KEN1 210223Z 15014KT 34/12 A2985 RMK A01 T03370123  RH  027%=      5-min Rain = 0
KEN1 210224Z 15015KT 34/12 A2985 RMK A01 T03370123  RH  027%=      5-min Rain = 0
KEN1 210225Z 15015KT 34/12 A2985 RMK A01 T03360124  RH  028%=      5-min Rain = 0
KEN1 210226Z 15015KT 34/12 A2985 RMK A01 T03370124  RH  028%=      5-min Rain = 0
KEN1 210227Z 15015KT 34/13 A2985 RMK A01 T03370125  RH  028%=      5-min Rain = 0
KEN1 210228Z 15016KT 34/13 A2985 RMK A01 T03360125  RH  028%=      5-min Rain = 0
KEN1 210229Z 15017KT 34/13 A2985 RMK A01 T03360125  RH  028%=      5-min Rain = 0
KEN1 210230Z 15017KT 34/13 A2985 RMK A01 T03360125  RH  028%=      5-min Rain = 0
KEN1 210231Z 15014KT 34/13 A2985 RMK A01 T03360125  RH  028%=      5-min Rain = 0
KEN1 210232Z 15018KT 34/13 A2985 RMK A01 T03360125  RH  028%=      5-min Rain = 0
KEN1 210233Z 15017KT 34/13 A2985 RMK A01 T03360126  RH  028%=      5-min Rain = 0
KEN1 210234Z 15017KT 34/13 A2985 RMK A01 T03360125  RH  028%=      5-min Rain = 0
KEN1 210235Z 15015KT 34/13 A2985 RMK A01 T03360126  RH  028%=      5-min Rain = 0
KEN1 210236Z 15017KT 34/13 A2985 RMK A01 T03360126  RH  028%=      5-min Rain = 0
KEN1 210237Z 15016KT 34/13 A2985 RMK A01 T03350126  RH  028%=      5-min Rain = 0
KEN1 210238Z 15017G22KT 34/13 A2985 RMK A01 T03350126  RH  028%=      5-min Rain = 0
KEN1 210239Z 15017KT 34/13 A2985 RMK A01 T03350126  RH  028%=      5-min Rain = 0
KEN1 210240Z 15016KT 34/13 A2985 RMK A01 T03350126  RH  028%=      5-min Rain = 0
KEN1 210241Z 15018KT 34/13 A2985 RMK A01 T03350126  RH  028%=      5-min Rain = 0
KEN1 210242Z 15017KT 34/13 A2985 RMK A01 T03350126  RH  028%=      5-min Rain = 0
KEN1 210243Z 15019KT 34/13 A2985 RMK A01 T03350126  RH  028%=      5-min Rain = 0
KEN1 210244Z 15016KT 33/13 A2986 RMK A01 T03340126  RH  028%=      5-min Rain = 0
KEN1 210245Z 15018G23KT 33/13 A2986 RMK A01 T03340126  RH  028%=      5-min Rain = 0
KEN1 210246Z 15018KT 33/13 A2986 RMK A01 T03330126  RH  028%=      5-min Rain = 0
KEN1 210247Z 15017KT 33/13 A2986 RMK A01 T03330126  RH  028%=      5-min Rain = 0
KEN1 210248Z 15017KT 33/13 A2986 RMK A01 T03340127  RH  029%=      5-min Rain = 0
KEN1 210249Z 15017KT 33/13 A2986 RMK A01 T03330126  RH  029%=      5-min Rain = 0
KEN1 210250Z 15017KT 33/13 A2986 RMK A01 T03330126  RH  029%=      5-min Rain = 0
KEN1 210251Z 16016KT 33/13 A2986 RMK A01 T03330126  RH  029%=      5-min Rain = 0
KEN1 210252Z 15016KT 33/13 A2986 RMK A01 T03320126  RH  029%=      5-min Rain = 0
KEN1 210253Z 15016KT 33/13 A2986 RMK A01 T03320126  RH  029%=      5-min Rain = 0
KEN1 210254Z 15016KT 33/13 A2987 RMK A01 T03310126  RH  029%=      5-min Rain = 0
KEN1 210255Z 16018KT 33/13 A2987 RMK A01 T03310126  RH  029%=      5-min Rain = 0
KEN1 210256Z 16017KT 33/13 A2987 RMK A01 T03310126  RH  029%=      5-min Rain = 0
KEN1 210257Z 15015G20KT 33/13 A2987 RMK A01 T03310126  RH  029%=      5-min Rain = 0
KEN1 210258Z 15017KT 33/13 A2987 RMK A01 T03310126  RH  029%=      5-min Rain = 0
KEN1 210259Z 16017KT 33/13 A2987 RMK A01 T03300127  RH  029%=      5-min Rain = 0
KEN1 210300Z 16016KT 33/13 A2987 RMK A01 T03300126  RH  029%=      5-min Rain = 0
KEN1 210301Z 15018KT 33/13 A2987 RMK A01 T03300126  RH  029%=      5-min Rain = 0
KEN1 210302Z 15016KT 33/13 A2987 RMK A01 T03290126  RH  029%=      5-min Rain = 0
KEN1 210303Z 15017KT 33/13 A2987 RMK A01 T03290126  RH  029%=      5-min Rain = 0
KEN1 210304Z 15017KT 33/13 A2987 RMK A01 T03290125  RH  029%=      5-min Rain = 0
KEN1 210305Z 15017KT 33/13 A2987 RMK A01 T03290125  RH  029%=      5-min Rain = 0
KEN1 210306Z 15016KT 33/13 A2987 RMK A01 T03290125  RH  029%=      5-min Rain = 0
KEN1 210307Z 15017KT 33/13 A2988 RMK A01 T03280125  RH  029%=      5-min Rain = 0
KEN1 210308Z 15015KT 33/13 A2988 RMK A01 T03270125  RH  029%=      5-min Rain = 0
KEN1 210309Z 15017KT 33/13 A2988 RMK A01 T03260125  RH  029%=      5-min Rain = 0
KEN1 210310Z 15017KT 33/13 A2988 RMK A01 T03260125  RH  029%=      5-min Rain = 0
KEN1 210311Z 15016KT 33/13 A2988 RMK A01 T03260125  RH  029%=      5-min Rain = 0
KEN1 210312Z 15017G23KT 33/13 A2988 RMK A01 T03260125  RH  029%=      5-min Rain = 0
KEN1 210313Z 15018KT 33/13 A2988 RMK A01 T03260125  RH  029%=      5-min Rain = 0
KEN1 210314Z 15016G21KT 33/13 A2988 RMK A01 T03260125  RH  029%=      5-min Rain = 0
KEN1 210315Z 15015KT 33/13 A2988 RMK A01 T03260125  RH  029%=      5-min Rain = 0
KEN1 210316Z 16018KT 33/12 A2988 RMK A01 T03250124  RH  030%=      5-min Rain = 0
KEN1 210317Z 15017KT 32/12 A2988 RMK A01 T03240124  RH  030%=      5-min Rain = 0
KEN1 210318Z 15016KT 32/12 A2988 RMK A01 T03240124  RH  030%=      5-min Rain = 0
KEN1 210319Z 16016KT 33/13 A2988 RMK A01 T03250125  RH  030%=      5-min Rain = 0
KEN1 210320Z 16016KT 33/13 A2988 RMK A01 T03250125  RH  030%=      5-min Rain = 0
KEN1 210321Z 16016KT 32/12 A2988 RMK A01 T03240124  RH  030%=      5-min Rain = 0
KEN1 210322Z 16018KT 33/13 A2988 RMK A01 T03250125  RH  030%=      5-min Rain = 0
KEN1 210323Z 16016KT 33/12 A2988 RMK A01 T03250124  RH  030%=      5-min Rain = 0
KEN1 210324Z 16017KT 33/12 A2988 RMK A01 T03250124  RH  029%=      5-min Rain = 0
KEN1 210325Z 16016KT 33/12 A2988 RMK A01 T03250124  RH  029%=      5-min Rain = 0
KEN1 210326Z 16015KT 33/13 A2988 RMK A01 T03250125  RH  030%=      5-min Rain = 0
KEN1 210327Z 15016KT 33/13 A2989 RMK A01 T03250125  RH  030%=      5-min Rain = 0
KEN1 210328Z 16016KT 33/13 A2989 RMK A01 T03250125  RH  030%=      5-min Rain = 0
KEN1 210329Z 16014KT 33/13 A2989 RMK A01 T03250125  RH  030%=      5-min Rain = 0
KEN1 210330Z 16017KT 33/13 A2989 RMK A01 T03250125  RH  030%=      5-min Rain = 0
KEN1 210331Z 16019KT 33/13 A2989 RMK A01 T03250125  RH  030%=      5-min Rain = 0
KEN1 210332Z 16017KT 33/13 A2989 RMK A01 T03260125  RH  029%=      5-min Rain = 0
KEN1 210333Z 16016KT 33/13 A2989 RMK A01 T03260125  RH  029%=      5-min Rain = 0
KEN1 210334Z 16017KT 33/13 A2989 RMK A01 T03270125  RH  029%=      5-min Rain = 0
KEN1 210335Z 16017KT 33/13 A2989 RMK A01 T03270125  RH  029%=      5-min Rain = 0
KEN1 210336Z 17017KT 33/13 A2989 RMK A01 T03260125  RH  029%=      5-min Rain = 0
KEN1 210337Z 17015KT 33/13 A2989 RMK A01 T03270126  RH  029%=      5-min Rain = 0
KEN1 210338Z 17017G22KT 33/13 A2989 RMK A01 T03270126  RH  029%=      5-min Rain = 0
KEN1 210339Z 17016KT 33/13 A299 RMK A01 T03270126  RH  029%=      5-min Rain = 0
KEN1 210340Z 17017KT 33/13 A299 RMK A01 T03270126  RH  029%=      5-min Rain = 0
KEN1 210341Z 17016KT 33/13 A299 RMK A01 T03270126  RH  029%=      5-min Rain = 0
KEN1 210342Z 17016KT 33/13 A299 RMK A01 T03270126  RH  029%=      5-min Rain = 0
KEN1 210343Z 17016KT 33/13 A299 RMK A01 T03270126  RH  030%=      5-min Rain = 0
KEN1 210344Z 18016KT 33/13 A2991 RMK A01 T03270127  RH  030%=      5-min Rain = 0
KEN1 210345Z 18017KT 33/13 A2991 RMK A01 T03270127  RH  030%=      5-min Rain = 0
KEN1 210346Z 18016KT 33/13 A2991 RMK A01 T03270127  RH  030%=      5-min Rain = 0
KEN1 210347Z 18016KT 33/13 A2991 RMK A01 T03260127  RH  030%=      5-min Rain = 0
KEN1 210348Z 18015KT 33/13 A2992 RMK A01 T03260127  RH  030%=      5-min Rain = 0
KEN1 210349Z 18015KT 33/13 A2992 RMK A01 T03250127  RH  030%=      5-min Rain = 0
KEN1 210350Z 18014KT 32/13 A2992 RMK A01 T03240127  RH  030%=      5-min Rain = 0
KEN1 210351Z 18014KT 32/13 A2992 RMK A01 T03240127  RH  030%=      5-min Rain = 0
KEN1 210352Z 18014KT 32/13 A2992 RMK A01 T03230127  RH  030%=      5-min Rain = 0
KEN1 210353Z 18015KT 32/13 A2992 RMK A01 T03230127  RH  030%=      5-min Rain = 0
KEN1 210354Z 18016KT 32/13 A2992 RMK A01 T03230128  RH  030%=      5-min Rain = 0
KEN1 210355Z 18014KT 32/13 A2992 RMK A01 T03230127  RH  030%=      5-min Rain = 0
KEN1 210356Z 18013KT 32/13 A2993 RMK A01 T03230127  RH  030%=      5-min Rain = 0
KEN1 210357Z 17014KT 32/13 A2992 RMK A01 T03230127  RH  030%=      5-min Rain = 0
KEN1 210358Z 17013KT 32/13 A2992 RMK A01 T03230127  RH  030%=      5-min Rain = 0
KEN1 210359Z 17012KT 32/13 A2993 RMK A01 T03230127  RH  030%=      5-min Rain = 0
KEN1 210400Z 17015KT 32/13 A2993 RMK A01 T03220127  RH  030%=      5-min Rain = 0
KEN1 210401Z 17014KT 32/13 A2993 RMK A01 T03230127  RH  030%=      5-min Rain = 0
KEN1 210402Z 17013KT 32/13 A2993 RMK A01 T03230127  RH  030%=      5-min Rain = 0
KEN1 210403Z 17012KT 32/13 A2993 RMK A01 T03220127  RH  030%=      5-min Rain = 0
KEN1 210404Z 17014KT 32/13 A2993 RMK A01 T03230127  RH  030%=      5-min Rain = 0
KEN1 210405Z 17012KT 32/13 A2993 RMK A01 T03230127  RH  030%=      5-min Rain = 0
KEN1 210406Z 16013KT 32/13 A2993 RMK A01 T03230127  RH  030%=      5-min Rain = 0
KEN1 210407Z 17013KT 32/13 A2993 RMK A01 T03230127  RH  030%=      5-min Rain = 0
KEN1 210408Z 17013KT 32/13 A2993 RMK A01 T03230126  RH  030%=      5-min Rain = 0
KEN1 210409Z 17013KT 32/13 A2993 RMK A01 T03230126  RH  030%=      5-min Rain = 0
KEN1 210410Z 17011KT 32/13 A2994 RMK A01 T03230127  RH  030%=      5-min Rain = 0
KEN1 210411Z 17011KT 32/13 A2994 RMK A01 T03220127  RH  030%=      5-min Rain = 0
KEN1 210412Z 17010KT 32/13 A2994 RMK A01 T03220126  RH  030%=      5-min Rain = 0
KEN1 210413Z 17009KT 32/13 A2994 RMK A01 T03220127  RH  030%=      5-min Rain = 0
KEN1 210414Z 16008KT 32/13 A2994 RMK A01 T03210127  RH  031%=      5-min Rain = 0
KEN1 210415Z 16009KT 32/13 A2994 RMK A01 T03210128  RH  031%=      5-min Rain = 0
KEN1 210416Z 17009KT 32/13 A2994 RMK A01 T03200128  RH  031%=      5-min Rain = 0
KEN1 210417Z 17009KT 32/13 A2994 RMK A01 T03200127  RH  031%=      5-min Rain = 0
KEN1 210418Z 17009KT 32/13 A2994 RMK A01 T03200128  RH  031%=      5-min Rain = 0
KEN1 210419Z 18006KT 32/13 A2994 RMK A01 T03200128  RH  031%=      5-min Rain = 0
KEN1 210420Z 20005KT 32/13 A2995 RMK A01 T03190128  RH  031%=      5-min Rain = 0
KEN1 210421Z 30008KT 32/13 A2996 RMK A01 T03190128  RH  031%=      5-min Rain = 0
KEN1 210422Z 31010KT 32/13 A2996 RMK A01 T03190127  RH  031%=      5-min Rain = 0
KEN1 210423Z 33011KT 32/13 A2996 RMK A01 T03200125  RH  031%=      5-min Rain = 0
KEN1 210424Z 34010KT 32/12 A2996 RMK A01 T03210124  RH  030%=      5-min Rain = 0
KEN1 210425Z 33009KT 32/12 A2996 RMK A01 T03210123  RH  030%=      5-min Rain = 0
KEN1 210426Z 33011KT 32/12 A2996 RMK A01 T03220121  RH  029%=      5-min Rain = 0
KEN1 210427Z 34012KT 32/12 A2996 RMK A01 T03220120  RH  029%=      5-min Rain = 0
KEN1 210428Z 33016KT 32/12 A2996 RMK A01 T03230118  RH  029%=      5-min Rain = 0
KEN1 210429Z 34017G22KT 32/12 A2996 RMK A01 T03220115  RH  028%=      5-min Rain = 0
KEN1 210430Z 36017KT 32/11 A2996 RMK A01 T03200114  RH  028%=      5-min Rain = 0
KEN1 210431Z 36019KT 32/11 A2996 RMK A01 T03180113  RH  028%=      5-min Rain = 0
KEN1 210432Z 35015KT 32/11 A2996 RMK A01 T03150112  RH  029%=      5-min Rain = 0
KEN1 210433Z 34012KT 31/11 A2997 RMK A01 T03130113  RH  029%=      5-min Rain = 0
KEN1 210434Z 35019KT 31/11 A2997 RMK A01 T03110114  RH  030%=      5-min Rain = 0
KEN1 210435Z 34019KT 31/12 A2997 RMK A01 T03090116  RH  031%=      5-min Rain = 0
KEN1 210436Z 34019KT 31/12 A2997 RMK A01 T03070119  RH  032%=      5-min Rain = 0
KEN1 210437Z 34018KT 30/12 A2997 RMK A01 T03040121  RH  033%=      5-min Rain = 0
KEN1 210438Z 34015KT 30/12 A2997 RMK A01 T03020123  RH  033%=      5-min Rain = 0
KEN1 210439Z 34017KT 30/12 A2997 RMK A01 T03000123  RH  034%=      5-min Rain = 0
KEN1 210440Z 34016KT 30/12 A2997 RMK A01 T02990123  RH  034%=      5-min Rain = 0
KEN1 210441Z 34016KT 30/12 A2997 RMK A01 T02990123  RH  034%=      5-min Rain = 0
KEN1 210442Z 34017KT 30/12 A2997 RMK A01 T02990123  RH  034%=      5-min Rain = 0
KEN1 210443Z 35014KT 30/12 A2997 RMK A01 T02980123  RH  034%=      5-min Rain = 0
KEN1 210444Z 34011KT 30/12 A2997 RMK A01 T02980123  RH  034%=      5-min Rain = 0
KEN1 210445Z 34014KT 30/12 A2997 RMK A01 T02970124  RH  034%=      5-min Rain = 0
KEN1 210446Z 34014KT 30/12 A2997 RMK A01 T02970123  RH  034%=      5-min Rain = 0
KEN1 210447Z 35012KT 30/12 A2997 RMK A01 T02960124  RH  035%=      5-min Rain = 0
KEN1 210448Z 35013KT 30/13 A2997 RMK A01 T02960125  RH  035%=      5-min Rain = 0
KEN1 210449Z 35014KT 30/13 A2997 RMK A01 T02950125  RH  035%=      5-min Rain = 0
KEN1 210450Z 35013KT 30/13 A2997 RMK A01 T02950125  RH  035%=      5-min Rain = 0
KEN1 210451Z 35012KT 30/13 A2997 RMK A01 T02950126  RH  035%=      5-min Rain = 0
KEN1 210452Z 35012KT 30/13 A2997 RMK A01 T02950126  RH  035%=      5-min Rain = 0
KEN1 210453Z 34013KT 29/13 A2996 RMK A01 T02940126  RH  035%=      5-min Rain = 0
KEN1 210454Z 35011KT 29/12 A2996 RMK A01 T02940124  RH  035%=      5-min Rain = 0
KEN1 210455Z 35010KT 29/13 A2996 RMK A01 T02940125  RH  035%=      5-min Rain = 0
KEN1 210456Z 35012KT 29/13 A2996 RMK A01 T02940126  RH  035%=      5-min Rain = 0
KEN1 210457Z 35011KT 29/13 A2996 RMK A01 T02940127  RH  036%=      5-min Rain = 0
KEN1 210458Z 36011KT 29/13 A2996 RMK A01 T02940128  RH  036%=      5-min Rain = 0
KEN1 210459Z 36011KT 29/13 A2996 RMK A01 T02930129  RH  036%=      5-min Rain = 0

Page generated in 0.071 seconds.